<?xml version="1.0" encoding="UTF-8" standalone="no" ?>
<gpx xmlns="http://www.topografix.com/GPX/1/1" xmlns:xsi="http://www.w3.org/2001/XMLSchema-instance" xsi:schemaLocation="http://www.topografix.com/GPX/1/1 http://www.topografix.com/GPX/1/1/gpx.xsd" version="1.1" creator="VisuGPX - https://www.visugpx.com">
  <metadata>
    <name>Balma 2020 01 29</name>
    <desc><![CDATA[
]]></desc>
  </metadata>
  <trk>
    <name><![CDATA[Balma 2020 01 29]]></name>
    <extensions>
      <line xmlns="http://www.topografix.com/GPX/gpx_style/0/2">
        <width>4</width>
      </line>
    </extensions>
    <trkseg>
      <trkpt lat="43.6131" lon="1.51102">
        <ele>169</ele>
        <time>2020-01-29T09:28:40.000Z</time>
      </trkpt>
      <trkpt lat="43.61319" lon="1.51062">
        <ele>168</ele>
        <time>2020-01-29T09:28:49.000Z</time>
      </trkpt>
      <trkpt lat="43.61353" lon="1.51068">
        <ele>174</ele>
        <time>2020-01-29T09:28:54.000Z</time>
      </trkpt>
      <trkpt lat="43.61351" lon="1.51099">
        <ele>169</ele>
        <time>2020-01-29T09:30:14.000Z</time>
      </trkpt>
      <trkpt lat="43.61345" lon="1.51129">
        <ele>170</ele>
        <time>2020-01-29T09:33:39.000Z</time>
      </trkpt>
      <trkpt lat="43.61362" lon="1.51151">
        <ele>171</ele>
        <time>2020-01-29T09:33:58.000Z</time>
      </trkpt>
      <trkpt lat="43.61366" lon="1.51183">
        <ele>171</ele>
        <time>2020-01-29T09:34:18.000Z</time>
      </trkpt>
      <trkpt lat="43.61372" lon="1.51213">
        <ele>171</ele>
        <time>2020-01-29T09:34:34.000Z</time>
      </trkpt>
      <trkpt lat="43.61374" lon="1.51246">
        <ele>172</ele>
        <time>2020-01-29T09:34:51.000Z</time>
      </trkpt>
      <trkpt lat="43.61379" lon="1.51277">
        <ele>173</ele>
        <time>2020-01-29T09:35:10.000Z</time>
      </trkpt>
      <trkpt lat="43.61383" lon="1.51309">
        <ele>173</ele>
        <time>2020-01-29T09:35:28.000Z</time>
      </trkpt>
      <trkpt lat="43.61386" lon="1.51341">
        <ele>175</ele>
        <time>2020-01-29T09:35:47.000Z</time>
      </trkpt>
      <trkpt lat="43.61387" lon="1.51373">
        <ele>175</ele>
        <time>2020-01-29T09:36:04.000Z</time>
      </trkpt>
      <trkpt lat="43.61386" lon="1.51405">
        <ele>176</ele>
        <time>2020-01-29T09:36:21.000Z</time>
      </trkpt>
      <trkpt lat="43.6139" lon="1.51438">
        <ele>176</ele>
        <time>2020-01-29T09:36:41.000Z</time>
      </trkpt>
      <trkpt lat="43.61392" lon="1.51469">
        <ele>177</ele>
        <time>2020-01-29T09:36:59.000Z</time>
      </trkpt>
      <trkpt lat="43.614" lon="1.51499">
        <ele>178</ele>
        <time>2020-01-29T09:37:19.000Z</time>
      </trkpt>
      <trkpt lat="43.61413" lon="1.51525">
        <ele>179</ele>
        <time>2020-01-29T09:37:40.000Z</time>
      </trkpt>
      <trkpt lat="43.61434" lon="1.5154">
        <ele>180</ele>
        <time>2020-01-29T09:38:02.000Z</time>
      </trkpt>
      <trkpt lat="43.61454" lon="1.51556">
        <ele>181</ele>
        <time>2020-01-29T09:38:22.000Z</time>
      </trkpt>
      <trkpt lat="43.61474" lon="1.51572">
        <ele>182</ele>
        <time>2020-01-29T09:38:45.000Z</time>
      </trkpt>
      <trkpt lat="43.61494" lon="1.51586">
        <ele>184</ele>
        <time>2020-01-29T09:39:18.000Z</time>
      </trkpt>
      <trkpt lat="43.61499" lon="1.51616">
        <ele>186</ele>
        <time>2020-01-29T09:39:46.000Z</time>
      </trkpt>
      <trkpt lat="43.61507" lon="1.51647">
        <ele>187</ele>
        <time>2020-01-29T09:40:14.000Z</time>
      </trkpt>
      <trkpt lat="43.61516" lon="1.51675">
        <ele>187</ele>
        <time>2020-01-29T09:40:41.000Z</time>
      </trkpt>
      <trkpt lat="43.61519" lon="1.51706">
        <ele>187</ele>
        <time>2020-01-29T09:41:08.000Z</time>
      </trkpt>
      <trkpt lat="43.61526" lon="1.51736">
        <ele>188</ele>
        <time>2020-01-29T09:41:40.000Z</time>
      </trkpt>
      <trkpt lat="43.61525" lon="1.51768">
        <ele>189</ele>
        <time>2020-01-29T09:42:09.000Z</time>
      </trkpt>
      <trkpt lat="43.61524" lon="1.518">
        <ele>190</ele>
        <time>2020-01-29T09:42:33.000Z</time>
      </trkpt>
      <trkpt lat="43.61517" lon="1.5183">
        <ele>192</ele>
        <time>2020-01-29T09:42:59.000Z</time>
      </trkpt>
      <trkpt lat="43.61518" lon="1.51861">
        <ele>194</ele>
        <time>2020-01-29T09:43:29.000Z</time>
      </trkpt>
      <trkpt lat="43.61518" lon="1.51892">
        <ele>195</ele>
        <time>2020-01-29T09:43:54.000Z</time>
      </trkpt>
      <trkpt lat="43.6151" lon="1.51922">
        <ele>196</ele>
        <time>2020-01-29T09:44:17.000Z</time>
      </trkpt>
      <trkpt lat="43.61503" lon="1.51952">
        <ele>197</ele>
        <time>2020-01-29T09:44:39.000Z</time>
      </trkpt>
      <trkpt lat="43.61498" lon="1.51983">
        <ele>200</ele>
        <time>2020-01-29T09:45:02.000Z</time>
      </trkpt>
      <trkpt lat="43.61488" lon="1.52011">
        <ele>201</ele>
        <time>2020-01-29T09:45:28.000Z</time>
      </trkpt>
      <trkpt lat="43.61477" lon="1.52038">
        <ele>203</ele>
        <time>2020-01-29T09:45:53.000Z</time>
      </trkpt>
      <trkpt lat="43.61462" lon="1.52063">
        <ele>205</ele>
        <time>2020-01-29T09:46:15.000Z</time>
      </trkpt>
      <trkpt lat="43.61449" lon="1.5209">
        <ele>203</ele>
        <time>2020-01-29T09:50:33.000Z</time>
      </trkpt>
      <trkpt lat="43.61451" lon="1.52121">
        <ele>204</ele>
        <time>2020-01-29T09:51:00.000Z</time>
      </trkpt>
      <trkpt lat="43.61429" lon="1.52132">
        <ele>204</ele>
        <time>2020-01-29T09:51:21.000Z</time>
      </trkpt>
      <trkpt lat="43.61419" lon="1.5216">
        <ele>205</ele>
        <time>2020-01-29T09:51:46.000Z</time>
      </trkpt>
      <trkpt lat="43.61408" lon="1.52188">
        <ele>207</ele>
        <time>2020-01-29T09:52:13.000Z</time>
      </trkpt>
      <trkpt lat="43.61422" lon="1.52213">
        <ele>208</ele>
        <time>2020-01-29T09:52:53.000Z</time>
      </trkpt>
      <trkpt lat="43.61444" lon="1.52221">
        <ele>209</ele>
        <time>2020-01-29T09:53:13.000Z</time>
      </trkpt>
      <trkpt lat="43.61467" lon="1.52224">
        <ele>210</ele>
        <time>2020-01-29T09:53:36.000Z</time>
      </trkpt>
      <trkpt lat="43.6149" lon="1.52228">
        <ele>212</ele>
        <time>2020-01-29T09:53:58.000Z</time>
      </trkpt>
      <trkpt lat="43.61512" lon="1.52237">
        <ele>214</ele>
        <time>2020-01-29T09:54:24.000Z</time>
      </trkpt>
      <trkpt lat="43.61532" lon="1.52251">
        <ele>216</ele>
        <time>2020-01-29T09:54:46.000Z</time>
      </trkpt>
      <trkpt lat="43.61551" lon="1.5227">
        <ele>219</ele>
        <time>2020-01-29T09:55:09.000Z</time>
      </trkpt>
      <trkpt lat="43.6157" lon="1.52286">
        <ele>220</ele>
        <time>2020-01-29T09:55:30.000Z</time>
      </trkpt>
      <trkpt lat="43.61591" lon="1.52301">
        <ele>221</ele>
        <time>2020-01-29T09:55:51.000Z</time>
      </trkpt>
      <trkpt lat="43.61614" lon="1.52301">
        <ele>220</ele>
        <time>2020-01-29T09:57:59.000Z</time>
      </trkpt>
      <trkpt lat="43.61634" lon="1.52317">
        <ele>219</ele>
        <time>2020-01-29T09:58:35.000Z</time>
      </trkpt>
      <trkpt lat="43.61656" lon="1.52326">
        <ele>218</ele>
        <time>2020-01-29T09:58:51.000Z</time>
      </trkpt>
      <trkpt lat="43.61677" lon="1.52337">
        <ele>216</ele>
        <time>2020-01-29T09:59:09.000Z</time>
      </trkpt>
      <trkpt lat="43.61699" lon="1.52349">
        <ele>213</ele>
        <time>2020-01-29T09:59:33.000Z</time>
      </trkpt>
      <trkpt lat="43.61724" lon="1.52354">
        <ele>212</ele>
        <time>2020-01-29T09:59:49.000Z</time>
      </trkpt>
      <trkpt lat="43.61746" lon="1.52362">
        <ele>211</ele>
        <time>2020-01-29T10:00:07.000Z</time>
      </trkpt>
      <trkpt lat="43.61768" lon="1.52369">
        <ele>210</ele>
        <time>2020-01-29T10:00:25.000Z</time>
      </trkpt>
      <trkpt lat="43.61792" lon="1.52373">
        <ele>208</ele>
        <time>2020-01-29T10:00:41.000Z</time>
      </trkpt>
      <trkpt lat="43.61815" lon="1.52379">
        <ele>206</ele>
        <time>2020-01-29T10:00:58.000Z</time>
      </trkpt>
      <trkpt lat="43.61839" lon="1.5239">
        <ele>205</ele>
        <time>2020-01-29T10:01:18.000Z</time>
      </trkpt>
      <trkpt lat="43.61862" lon="1.52395">
        <ele>204</ele>
        <time>2020-01-29T10:01:39.000Z</time>
      </trkpt>
      <trkpt lat="43.61884" lon="1.524">
        <ele>205</ele>
        <time>2020-01-29T10:01:57.000Z</time>
      </trkpt>
      <trkpt lat="43.61906" lon="1.52407">
        <ele>206</ele>
        <time>2020-01-29T10:02:16.000Z</time>
      </trkpt>
      <trkpt lat="43.61928" lon="1.52415">
        <ele>208</ele>
        <time>2020-01-29T10:02:36.000Z</time>
      </trkpt>
      <trkpt lat="43.61951" lon="1.52425">
        <ele>209</ele>
        <time>2020-01-29T10:02:55.000Z</time>
      </trkpt>
      <trkpt lat="43.61972" lon="1.52439">
        <ele>209</ele>
        <time>2020-01-29T10:03:15.000Z</time>
      </trkpt>
      <trkpt lat="43.61994" lon="1.52454">
        <ele>208</ele>
        <time>2020-01-29T10:03:35.000Z</time>
      </trkpt>
      <trkpt lat="43.62015" lon="1.52469">
        <ele>208</ele>
        <time>2020-01-29T10:03:54.000Z</time>
      </trkpt>
      <trkpt lat="43.62028" lon="1.52495">
        <ele>209</ele>
        <time>2020-01-29T10:04:18.000Z</time>
      </trkpt>
      <trkpt lat="43.62024" lon="1.52526">
        <ele>209</ele>
        <time>2020-01-29T10:04:44.000Z</time>
      </trkpt>
      <trkpt lat="43.62014" lon="1.52557">
        <ele>209</ele>
        <time>2020-01-29T10:05:04.000Z</time>
      </trkpt>
      <trkpt lat="43.62007" lon="1.52587">
        <ele>209</ele>
        <time>2020-01-29T10:05:23.000Z</time>
      </trkpt>
      <trkpt lat="43.61998" lon="1.52617">
        <ele>210</ele>
        <time>2020-01-29T10:05:42.000Z</time>
      </trkpt>
      <trkpt lat="43.6199" lon="1.52646">
        <ele>210</ele>
        <time>2020-01-29T10:06:01.000Z</time>
      </trkpt>
      <trkpt lat="43.61981" lon="1.52678">
        <ele>210</ele>
        <time>2020-01-29T10:06:19.000Z</time>
      </trkpt>
      <trkpt lat="43.61974" lon="1.52708">
        <ele>210</ele>
        <time>2020-01-29T10:06:37.000Z</time>
      </trkpt>
      <trkpt lat="43.61965" lon="1.52737">
        <ele>210</ele>
        <time>2020-01-29T10:06:55.000Z</time>
      </trkpt>
      <trkpt lat="43.61957" lon="1.52767">
        <ele>211</ele>
        <time>2020-01-29T10:07:13.000Z</time>
      </trkpt>
      <trkpt lat="43.6195" lon="1.52797">
        <ele>211</ele>
        <time>2020-01-29T10:07:32.000Z</time>
      </trkpt>
      <trkpt lat="43.61943" lon="1.52827">
        <ele>210</ele>
        <time>2020-01-29T10:07:50.000Z</time>
      </trkpt>
      <trkpt lat="43.61936" lon="1.52857">
        <ele>210</ele>
        <time>2020-01-29T10:08:09.000Z</time>
      </trkpt>
      <trkpt lat="43.61924" lon="1.52885">
        <ele>210</ele>
        <time>2020-01-29T10:08:26.000Z</time>
      </trkpt>
      <trkpt lat="43.61916" lon="1.52915">
        <ele>209</ele>
        <time>2020-01-29T10:08:45.000Z</time>
      </trkpt>
      <trkpt lat="43.61914" lon="1.52948">
        <ele>209</ele>
        <time>2020-01-29T10:09:04.000Z</time>
      </trkpt>
      <trkpt lat="43.61906" lon="1.5298">
        <ele>208</ele>
        <time>2020-01-29T10:09:22.000Z</time>
      </trkpt>
      <trkpt lat="43.61924" lon="1.53001">
        <ele>205</ele>
        <time>2020-01-29T10:09:49.000Z</time>
      </trkpt>
      <trkpt lat="43.61943" lon="1.53022">
        <ele>200</ele>
        <time>2020-01-29T10:10:24.000Z</time>
      </trkpt>
      <trkpt lat="43.61964" lon="1.53036">
        <ele>196</ele>
        <time>2020-01-29T10:10:49.000Z</time>
      </trkpt>
      <trkpt lat="43.61986" lon="1.53047">
        <ele>193</ele>
        <time>2020-01-29T10:11:11.000Z</time>
      </trkpt>
      <trkpt lat="43.62006" lon="1.53063">
        <ele>188</ele>
        <time>2020-01-29T10:11:36.000Z</time>
      </trkpt>
      <trkpt lat="43.62024" lon="1.53083">
        <ele>185</ele>
        <time>2020-01-29T10:11:59.000Z</time>
      </trkpt>
      <trkpt lat="43.62046" lon="1.53089">
        <ele>181</ele>
        <time>2020-01-29T10:12:27.000Z</time>
      </trkpt>
      <trkpt lat="43.62069" lon="1.5309">
        <ele>177</ele>
        <time>2020-01-29T10:12:56.000Z</time>
      </trkpt>
      <trkpt lat="43.62092" lon="1.53092">
        <ele>173</ele>
        <time>2020-01-29T10:13:21.000Z</time>
      </trkpt>
      <trkpt lat="43.62116" lon="1.53096">
        <ele>170</ele>
        <time>2020-01-29T10:13:45.000Z</time>
      </trkpt>
      <trkpt lat="43.62139" lon="1.53099">
        <ele>167</ele>
        <time>2020-01-29T10:14:06.000Z</time>
      </trkpt>
      <trkpt lat="43.62162" lon="1.53103">
        <ele>169</ele>
        <time>2020-01-29T10:14:26.000Z</time>
      </trkpt>
      <trkpt lat="43.62182" lon="1.53119">
        <ele>167</ele>
        <time>2020-01-29T10:14:46.000Z</time>
      </trkpt>
      <trkpt lat="43.62197" lon="1.53146">
        <ele>164</ele>
        <time>2020-01-29T10:15:07.000Z</time>
      </trkpt>
      <trkpt lat="43.62211" lon="1.53171">
        <ele>163</ele>
        <time>2020-01-29T10:15:26.000Z</time>
      </trkpt>
      <trkpt lat="43.62226" lon="1.53195">
        <ele>160</ele>
        <time>2020-01-29T10:15:45.000Z</time>
      </trkpt>
      <trkpt lat="43.6224" lon="1.5322">
        <ele>159</ele>
        <time>2020-01-29T10:16:04.000Z</time>
      </trkpt>
      <trkpt lat="43.62258" lon="1.53238">
        <ele>157</ele>
        <time>2020-01-29T10:21:54.000Z</time>
      </trkpt>
      <trkpt lat="43.62266" lon="1.53267">
        <ele>156</ele>
        <time>2020-01-29T10:22:15.000Z</time>
      </trkpt>
      <trkpt lat="43.62275" lon="1.53296">
        <ele>155</ele>
        <time>2020-01-29T10:22:34.000Z</time>
      </trkpt>
      <trkpt lat="43.62283" lon="1.53327">
        <ele>155</ele>
        <time>2020-01-29T10:22:52.000Z</time>
      </trkpt>
      <trkpt lat="43.62289" lon="1.53357">
        <ele>155</ele>
        <time>2020-01-29T10:23:10.000Z</time>
      </trkpt>
      <trkpt lat="43.62296" lon="1.53388">
        <ele>154</ele>
        <time>2020-01-29T10:23:28.000Z</time>
      </trkpt>
      <trkpt lat="43.62304" lon="1.53417">
        <ele>155</ele>
        <time>2020-01-29T10:23:45.000Z</time>
      </trkpt>
      <trkpt lat="43.62311" lon="1.53448">
        <ele>155</ele>
        <time>2020-01-29T10:24:03.000Z</time>
      </trkpt>
      <trkpt lat="43.62295" lon="1.53471">
        <ele>154</ele>
        <time>2020-01-29T10:24:24.000Z</time>
      </trkpt>
      <trkpt lat="43.6228" lon="1.53495">
        <ele>154</ele>
        <time>2020-01-29T10:24:44.000Z</time>
      </trkpt>
      <trkpt lat="43.62262" lon="1.53514">
        <ele>153</ele>
        <time>2020-01-29T10:25:02.000Z</time>
      </trkpt>
      <trkpt lat="43.62248" lon="1.5354">
        <ele>154</ele>
        <time>2020-01-29T10:25:20.000Z</time>
      </trkpt>
      <trkpt lat="43.62231" lon="1.53563">
        <ele>154</ele>
        <time>2020-01-29T10:25:37.000Z</time>
      </trkpt>
      <trkpt lat="43.62216" lon="1.53587">
        <ele>153</ele>
        <time>2020-01-29T10:25:57.000Z</time>
      </trkpt>
      <trkpt lat="43.62201" lon="1.53613">
        <ele>153</ele>
        <time>2020-01-29T10:26:16.000Z</time>
      </trkpt>
      <trkpt lat="43.62188" lon="1.5364">
        <ele>153</ele>
        <time>2020-01-29T10:26:34.000Z</time>
      </trkpt>
      <trkpt lat="43.62174" lon="1.53666">
        <ele>153</ele>
        <time>2020-01-29T10:26:52.000Z</time>
      </trkpt>
      <trkpt lat="43.62158" lon="1.53688">
        <ele>154</ele>
        <time>2020-01-29T10:27:18.000Z</time>
      </trkpt>
      <trkpt lat="43.62143" lon="1.53713">
        <ele>154</ele>
        <time>2020-01-29T10:27:39.000Z</time>
      </trkpt>
      <trkpt lat="43.6213" lon="1.53739">
        <ele>154</ele>
        <time>2020-01-29T10:27:57.000Z</time>
      </trkpt>
      <trkpt lat="43.62115" lon="1.53763">
        <ele>153</ele>
        <time>2020-01-29T10:28:12.000Z</time>
      </trkpt>
      <trkpt lat="43.62097" lon="1.53783">
        <ele>153</ele>
        <time>2020-01-29T10:28:28.000Z</time>
      </trkpt>
      <trkpt lat="43.6208" lon="1.53805">
        <ele>152</ele>
        <time>2020-01-29T10:28:44.000Z</time>
      </trkpt>
      <trkpt lat="43.6206" lon="1.53822">
        <ele>152</ele>
        <time>2020-01-29T10:29:02.000Z</time>
      </trkpt>
      <trkpt lat="43.62043" lon="1.53843">
        <ele>152</ele>
        <time>2020-01-29T10:29:23.000Z</time>
      </trkpt>
      <trkpt lat="43.62023" lon="1.53861">
        <ele>152</ele>
        <time>2020-01-29T10:29:45.000Z</time>
      </trkpt>
      <trkpt lat="43.62004" lon="1.53878">
        <ele>152</ele>
        <time>2020-01-29T10:30:05.000Z</time>
      </trkpt>
      <trkpt lat="43.61985" lon="1.53896">
        <ele>152</ele>
        <time>2020-01-29T10:34:21.000Z</time>
      </trkpt>
      <trkpt lat="43.61966" lon="1.53912">
        <ele>152</ele>
        <time>2020-01-29T10:34:48.000Z</time>
      </trkpt>
      <trkpt lat="43.61946" lon="1.53929">
        <ele>152</ele>
        <time>2020-01-29T10:35:11.000Z</time>
      </trkpt>
      <trkpt lat="43.61926" lon="1.53947">
        <ele>152</ele>
        <time>2020-01-29T10:35:34.000Z</time>
      </trkpt>
      <trkpt lat="43.61907" lon="1.53966">
        <ele>152</ele>
        <time>2020-01-29T10:35:56.000Z</time>
      </trkpt>
      <trkpt lat="43.61889" lon="1.53984">
        <ele>153</ele>
        <time>2020-01-29T10:36:18.000Z</time>
      </trkpt>
      <trkpt lat="43.61871" lon="1.54004">
        <ele>152</ele>
        <time>2020-01-29T10:36:42.000Z</time>
      </trkpt>
      <trkpt lat="43.61851" lon="1.54021">
        <ele>152</ele>
        <time>2020-01-29T10:37:03.000Z</time>
      </trkpt>
      <trkpt lat="43.61832" lon="1.54038">
        <ele>153</ele>
        <time>2020-01-29T10:37:25.000Z</time>
      </trkpt>
      <trkpt lat="43.61813" lon="1.54055">
        <ele>152</ele>
        <time>2020-01-29T10:38:09.000Z</time>
      </trkpt>
      <trkpt lat="43.61794" lon="1.54074">
        <ele>154</ele>
        <time>2020-01-29T10:39:17.000Z</time>
      </trkpt>
      <trkpt lat="43.61775" lon="1.54091">
        <ele>154</ele>
        <time>2020-01-29T10:39:41.000Z</time>
      </trkpt>
      <trkpt lat="43.61755" lon="1.54109">
        <ele>154</ele>
        <time>2020-01-29T10:40:01.000Z</time>
      </trkpt>
      <trkpt lat="43.61737" lon="1.54127">
        <ele>154</ele>
        <time>2020-01-29T10:40:22.000Z</time>
      </trkpt>
      <trkpt lat="43.61717" lon="1.54144">
        <ele>154</ele>
        <time>2020-01-29T10:40:42.000Z</time>
      </trkpt>
      <trkpt lat="43.61699" lon="1.54163">
        <ele>155</ele>
        <time>2020-01-29T10:41:02.000Z</time>
      </trkpt>
      <trkpt lat="43.6168" lon="1.54181">
        <ele>155</ele>
        <time>2020-01-29T10:41:22.000Z</time>
      </trkpt>
      <trkpt lat="43.61662" lon="1.54201">
        <ele>155</ele>
        <time>2020-01-29T10:41:44.000Z</time>
      </trkpt>
      <trkpt lat="43.61663" lon="1.54233">
        <ele>156</ele>
        <time>2020-01-29T10:42:10.000Z</time>
      </trkpt>
      <trkpt lat="43.61681" lon="1.54253">
        <ele>156</ele>
        <time>2020-01-29T10:42:28.000Z</time>
      </trkpt>
      <trkpt lat="43.61699" lon="1.54272">
        <ele>156</ele>
        <time>2020-01-29T10:42:48.000Z</time>
      </trkpt>
      <trkpt lat="43.61719" lon="1.54288">
        <ele>156</ele>
        <time>2020-01-29T10:43:06.000Z</time>
      </trkpt>
      <trkpt lat="43.61742" lon="1.543">
        <ele>156</ele>
        <time>2020-01-29T10:43:25.000Z</time>
      </trkpt>
      <trkpt lat="43.61762" lon="1.54315">
        <ele>157</ele>
        <time>2020-01-29T10:43:44.000Z</time>
      </trkpt>
      <trkpt lat="43.61767" lon="1.54346">
        <ele>157</ele>
        <time>2020-01-29T10:44:04.000Z</time>
      </trkpt>
      <trkpt lat="43.61766" lon="1.54378">
        <ele>157</ele>
        <time>2020-01-29T10:44:24.000Z</time>
      </trkpt>
      <trkpt lat="43.61771" lon="1.54409">
        <ele>157</ele>
        <time>2020-01-29T10:44:46.000Z</time>
      </trkpt>
      <trkpt lat="43.61763" lon="1.54438">
        <ele>157</ele>
        <time>2020-01-29T10:45:18.000Z</time>
      </trkpt>
      <trkpt lat="43.61753" lon="1.54468">
        <ele>157</ele>
        <time>2020-01-29T10:45:41.000Z</time>
      </trkpt>
      <trkpt lat="43.61754" lon="1.545">
        <ele>159</ele>
        <time>2020-01-29T10:46:07.000Z</time>
      </trkpt>
      <trkpt lat="43.61754" lon="1.54532">
        <ele>160</ele>
        <time>2020-01-29T10:46:29.000Z</time>
      </trkpt>
      <trkpt lat="43.61757" lon="1.54564">
        <ele>161</ele>
        <time>2020-01-29T10:46:56.000Z</time>
      </trkpt>
      <trkpt lat="43.61753" lon="1.54594">
        <ele>161</ele>
        <time>2020-01-29T10:47:32.000Z</time>
      </trkpt>
      <trkpt lat="43.61755" lon="1.54626">
        <ele>162</ele>
        <time>2020-01-29T10:48:08.000Z</time>
      </trkpt>
      <trkpt lat="43.61756" lon="1.54658">
        <ele>163</ele>
        <time>2020-01-29T10:48:34.000Z</time>
      </trkpt>
      <trkpt lat="43.61754" lon="1.54689">
        <ele>163</ele>
        <time>2020-01-29T10:48:58.000Z</time>
      </trkpt>
      <trkpt lat="43.61757" lon="1.5472">
        <ele>164</ele>
        <time>2020-01-29T10:49:23.000Z</time>
      </trkpt>
      <trkpt lat="43.61757" lon="1.54751">
        <ele>165</ele>
        <time>2020-01-29T10:49:48.000Z</time>
      </trkpt>
      <trkpt lat="43.61757" lon="1.54782">
        <ele>167</ele>
        <time>2020-01-29T10:50:13.000Z</time>
      </trkpt>
      <trkpt lat="43.61756" lon="1.54813">
        <ele>169</ele>
        <time>2020-01-29T10:50:42.000Z</time>
      </trkpt>
      <trkpt lat="43.61743" lon="1.54839">
        <ele>170</ele>
        <time>2020-01-29T10:51:11.000Z</time>
      </trkpt>
      <trkpt lat="43.61729" lon="1.54864">
        <ele>171</ele>
        <time>2020-01-29T10:51:38.000Z</time>
      </trkpt>
      <trkpt lat="43.61724" lon="1.54897">
        <ele>173</ele>
        <time>2020-01-29T10:52:25.000Z</time>
      </trkpt>
      <trkpt lat="43.61715" lon="1.54926">
        <ele>174</ele>
        <time>2020-01-29T10:52:51.000Z</time>
      </trkpt>
      <trkpt lat="43.61701" lon="1.5495">
        <ele>175</ele>
        <time>2020-01-29T10:53:17.000Z</time>
      </trkpt>
      <trkpt lat="43.6169" lon="1.54979">
        <ele>176</ele>
        <time>2020-01-29T10:53:40.000Z</time>
      </trkpt>
      <trkpt lat="43.6168" lon="1.55007">
        <ele>177</ele>
        <time>2020-01-29T10:54:05.000Z</time>
      </trkpt>
      <trkpt lat="43.61669" lon="1.55035">
        <ele>177</ele>
        <time>2020-01-29T10:54:27.000Z</time>
      </trkpt>
      <trkpt lat="43.61657" lon="1.55063">
        <ele>178</ele>
        <time>2020-01-29T10:54:51.000Z</time>
      </trkpt>
      <trkpt lat="43.61648" lon="1.55092">
        <ele>179</ele>
        <time>2020-01-29T10:55:19.000Z</time>
      </trkpt>
      <trkpt lat="43.61638" lon="1.55121">
        <ele>179</ele>
        <time>2020-01-29T10:55:42.000Z</time>
      </trkpt>
      <trkpt lat="43.61628" lon="1.55148">
        <ele>180</ele>
        <time>2020-01-29T10:56:03.000Z</time>
      </trkpt>
      <trkpt lat="43.61618" lon="1.55176">
        <ele>180</ele>
        <time>2020-01-29T10:56:24.000Z</time>
      </trkpt>
      <trkpt lat="43.61606" lon="1.55203">
        <ele>181</ele>
        <time>2020-01-29T10:56:47.000Z</time>
      </trkpt>
      <trkpt lat="43.61596" lon="1.55233">
        <ele>181</ele>
        <time>2020-01-29T10:57:08.000Z</time>
      </trkpt>
      <trkpt lat="43.61588" lon="1.55262">
        <ele>182</ele>
        <time>2020-01-29T10:57:30.000Z</time>
      </trkpt>
      <trkpt lat="43.61577" lon="1.55291">
        <ele>183</ele>
        <time>2020-01-29T10:57:51.000Z</time>
      </trkpt>
      <trkpt lat="43.61565" lon="1.55318">
        <ele>185</ele>
        <time>2020-01-29T10:58:17.000Z</time>
      </trkpt>
      <trkpt lat="43.6155" lon="1.55341">
        <ele>186</ele>
        <time>2020-01-29T10:58:44.000Z</time>
      </trkpt>
      <trkpt lat="43.61531" lon="1.5536">
        <ele>188</ele>
        <time>2020-01-29T10:59:10.000Z</time>
      </trkpt>
      <trkpt lat="43.61517" lon="1.55385">
        <ele>190</ele>
        <time>2020-01-29T11:00:30.000Z</time>
      </trkpt>
      <trkpt lat="43.61497" lon="1.55399">
        <ele>192</ele>
        <time>2020-01-29T11:07:27.000Z</time>
      </trkpt>
      <trkpt lat="43.61478" lon="1.55418">
        <ele>194</ele>
        <time>2020-01-29T11:07:47.000Z</time>
      </trkpt>
      <trkpt lat="43.6146" lon="1.55438">
        <ele>196</ele>
        <time>2020-01-29T11:08:09.000Z</time>
      </trkpt>
      <trkpt lat="43.61459" lon="1.5547">
        <ele>196</ele>
        <time>2020-01-29T11:08:29.000Z</time>
      </trkpt>
      <trkpt lat="43.61459" lon="1.55501">
        <ele>196</ele>
        <time>2020-01-29T11:08:50.000Z</time>
      </trkpt>
      <trkpt lat="43.61458" lon="1.55533">
        <ele>196</ele>
        <time>2020-01-29T11:09:10.000Z</time>
      </trkpt>
      <trkpt lat="43.61458" lon="1.55565">
        <ele>196</ele>
        <time>2020-01-29T11:09:30.000Z</time>
      </trkpt>
      <trkpt lat="43.61456" lon="1.55598">
        <ele>196</ele>
        <time>2020-01-29T11:09:50.000Z</time>
      </trkpt>
      <trkpt lat="43.61454" lon="1.55631">
        <ele>196</ele>
        <time>2020-01-29T11:10:10.000Z</time>
      </trkpt>
      <trkpt lat="43.6145" lon="1.55662">
        <ele>196</ele>
        <time>2020-01-29T11:10:28.000Z</time>
      </trkpt>
      <trkpt lat="43.61442" lon="1.55691">
        <ele>197</ele>
        <time>2020-01-29T11:10:47.000Z</time>
      </trkpt>
      <trkpt lat="43.61431" lon="1.55719">
        <ele>197</ele>
        <time>2020-01-29T11:11:06.000Z</time>
      </trkpt>
      <trkpt lat="43.61422" lon="1.55748">
        <ele>198</ele>
        <time>2020-01-29T11:11:26.000Z</time>
      </trkpt>
      <trkpt lat="43.61414" lon="1.55778">
        <ele>198</ele>
        <time>2020-01-29T11:11:45.000Z</time>
      </trkpt>
      <trkpt lat="43.61406" lon="1.55808">
        <ele>199</ele>
        <time>2020-01-29T11:12:04.000Z</time>
      </trkpt>
      <trkpt lat="43.61399" lon="1.55838">
        <ele>200</ele>
        <time>2020-01-29T11:12:22.000Z</time>
      </trkpt>
      <trkpt lat="43.61394" lon="1.5587">
        <ele>200</ele>
        <time>2020-01-29T11:12:40.000Z</time>
      </trkpt>
      <trkpt lat="43.61389" lon="1.55901">
        <ele>201</ele>
        <time>2020-01-29T11:13:00.000Z</time>
      </trkpt>
      <trkpt lat="43.61384" lon="1.55932">
        <ele>201</ele>
        <time>2020-01-29T11:13:19.000Z</time>
      </trkpt>
      <trkpt lat="43.61372" lon="1.55959">
        <ele>201</ele>
        <time>2020-01-29T11:13:40.000Z</time>
      </trkpt>
      <trkpt lat="43.61349" lon="1.55963">
        <ele>200</ele>
        <time>2020-01-29T11:14:02.000Z</time>
      </trkpt>
      <trkpt lat="43.61333" lon="1.55987">
        <ele>198</ele>
        <time>2020-01-29T11:14:22.000Z</time>
      </trkpt>
      <trkpt lat="43.61337" lon="1.56018">
        <ele>195</ele>
        <time>2020-01-29T11:14:42.000Z</time>
      </trkpt>
      <trkpt lat="43.61345" lon="1.56048">
        <ele>192</ele>
        <time>2020-01-29T11:15:02.000Z</time>
      </trkpt>
      <trkpt lat="43.61351" lon="1.56081">
        <ele>190</ele>
        <time>2020-01-29T11:15:20.000Z</time>
      </trkpt>
      <trkpt lat="43.61361" lon="1.56109">
        <ele>191</ele>
        <time>2020-01-29T11:15:37.000Z</time>
      </trkpt>
      <trkpt lat="43.6137" lon="1.56139">
        <ele>192</ele>
        <time>2020-01-29T11:15:57.000Z</time>
      </trkpt>
      <trkpt lat="43.61372" lon="1.56171">
        <ele>195</ele>
        <time>2020-01-29T11:16:17.000Z</time>
      </trkpt>
      <trkpt lat="43.61373" lon="1.56202">
        <ele>197</ele>
        <time>2020-01-29T11:16:37.000Z</time>
      </trkpt>
      <trkpt lat="43.61372" lon="1.56233">
        <ele>199</ele>
        <time>2020-01-29T11:16:56.000Z</time>
      </trkpt>
      <trkpt lat="43.6137" lon="1.56265">
        <ele>201</ele>
        <time>2020-01-29T11:17:16.000Z</time>
      </trkpt>
      <trkpt lat="43.61365" lon="1.56296">
        <ele>201</ele>
        <time>2020-01-29T11:17:34.000Z</time>
      </trkpt>
      <trkpt lat="43.61364" lon="1.56327">
        <ele>202</ele>
        <time>2020-01-29T11:17:53.000Z</time>
      </trkpt>
      <trkpt lat="43.61357" lon="1.56358">
        <ele>202</ele>
        <time>2020-01-29T11:18:11.000Z</time>
      </trkpt>
      <trkpt lat="43.61353" lon="1.56389">
        <ele>202</ele>
        <time>2020-01-29T11:18:30.000Z</time>
      </trkpt>
      <trkpt lat="43.61352" lon="1.56421">
        <ele>202</ele>
        <time>2020-01-29T11:18:48.000Z</time>
      </trkpt>
      <trkpt lat="43.6135" lon="1.56452">
        <ele>202</ele>
        <time>2020-01-29T11:19:06.000Z</time>
      </trkpt>
      <trkpt lat="43.61345" lon="1.56482">
        <ele>201</ele>
        <time>2020-01-29T11:19:23.000Z</time>
      </trkpt>
      <trkpt lat="43.61338" lon="1.56513">
        <ele>198</ele>
        <time>2020-01-29T11:19:42.000Z</time>
      </trkpt>
      <trkpt lat="43.61321" lon="1.56536">
        <ele>194</ele>
        <time>2020-01-29T11:20:00.000Z</time>
      </trkpt>
      <trkpt lat="43.613" lon="1.56549">
        <ele>191</ele>
        <time>2020-01-29T11:20:36.000Z</time>
      </trkpt>
      <trkpt lat="43.61277" lon="1.56555">
        <ele>187</ele>
        <time>2020-01-29T11:20:55.000Z</time>
      </trkpt>
      <trkpt lat="43.61255" lon="1.56566">
        <ele>186</ele>
        <time>2020-01-29T11:21:16.000Z</time>
      </trkpt>
      <trkpt lat="43.61234" lon="1.56577">
        <ele>188</ele>
        <time>2020-01-29T11:21:36.000Z</time>
      </trkpt>
      <trkpt lat="43.61212" lon="1.56589">
        <ele>192</ele>
        <time>2020-01-29T11:21:59.000Z</time>
      </trkpt>
      <trkpt lat="43.61193" lon="1.56606">
        <ele>195</ele>
        <time>2020-01-29T11:22:20.000Z</time>
      </trkpt>
      <trkpt lat="43.61184" lon="1.56635">
        <ele>196</ele>
        <time>2020-01-29T11:22:40.000Z</time>
      </trkpt>
      <trkpt lat="43.61173" lon="1.56662">
        <ele>197</ele>
        <time>2020-01-29T11:23:03.000Z</time>
      </trkpt>
      <trkpt lat="43.61162" lon="1.56689">
        <ele>197</ele>
        <time>2020-01-29T11:23:23.000Z</time>
      </trkpt>
      <trkpt lat="43.61153" lon="1.56717">
        <ele>198</ele>
        <time>2020-01-29T11:23:41.000Z</time>
      </trkpt>
      <trkpt lat="43.61141" lon="1.56745">
        <ele>198</ele>
        <time>2020-01-29T11:24:00.000Z</time>
      </trkpt>
      <trkpt lat="43.61129" lon="1.56772">
        <ele>199</ele>
        <time>2020-01-29T11:24:20.000Z</time>
      </trkpt>
      <trkpt lat="43.61119" lon="1.56801">
        <ele>199</ele>
        <time>2020-01-29T11:24:40.000Z</time>
      </trkpt>
      <trkpt lat="43.61107" lon="1.56829">
        <ele>201</ele>
        <time>2020-01-29T11:25:01.000Z</time>
      </trkpt>
      <trkpt lat="43.61095" lon="1.56856">
        <ele>202</ele>
        <time>2020-01-29T11:25:22.000Z</time>
      </trkpt>
      <trkpt lat="43.61085" lon="1.56884">
        <ele>205</ele>
        <time>2020-01-29T11:27:46.000Z</time>
      </trkpt>
      <trkpt lat="43.61074" lon="1.56911">
        <ele>206</ele>
        <time>2020-01-29T11:28:05.000Z</time>
      </trkpt>
      <trkpt lat="43.61063" lon="1.56939">
        <ele>207</ele>
        <time>2020-01-29T11:28:24.000Z</time>
      </trkpt>
      <trkpt lat="43.61051" lon="1.56966">
        <ele>208</ele>
        <time>2020-01-29T11:28:43.000Z</time>
      </trkpt>
      <trkpt lat="43.61031" lon="1.5698">
        <ele>209</ele>
        <time>2020-01-29T11:29:08.000Z</time>
      </trkpt>
      <trkpt lat="43.61016" lon="1.57005">
        <ele>210</ele>
        <time>2020-01-29T11:29:31.000Z</time>
      </trkpt>
      <trkpt lat="43.61001" lon="1.5703">
        <ele>211</ele>
        <time>2020-01-29T11:29:52.000Z</time>
      </trkpt>
      <trkpt lat="43.60989" lon="1.57056">
        <ele>211</ele>
        <time>2020-01-29T11:30:11.000Z</time>
      </trkpt>
      <trkpt lat="43.60975" lon="1.57082">
        <ele>212</ele>
        <time>2020-01-29T11:30:30.000Z</time>
      </trkpt>
      <trkpt lat="43.60962" lon="1.57108">
        <ele>212</ele>
        <time>2020-01-29T11:30:48.000Z</time>
      </trkpt>
      <trkpt lat="43.60948" lon="1.57134">
        <ele>212</ele>
        <time>2020-01-29T11:31:07.000Z</time>
      </trkpt>
      <trkpt lat="43.60935" lon="1.57161">
        <ele>212</ele>
        <time>2020-01-29T11:31:27.000Z</time>
      </trkpt>
      <trkpt lat="43.60914" lon="1.57176">
        <ele>213</ele>
        <time>2020-01-29T11:31:46.000Z</time>
      </trkpt>
      <trkpt lat="43.60893" lon="1.57187">
        <ele>214</ele>
        <time>2020-01-29T11:32:04.000Z</time>
      </trkpt>
      <trkpt lat="43.60871" lon="1.57196">
        <ele>214</ele>
        <time>2020-01-29T11:32:22.000Z</time>
      </trkpt>
      <trkpt lat="43.60849" lon="1.57204">
        <ele>214</ele>
        <time>2020-01-29T11:32:42.000Z</time>
      </trkpt>
      <trkpt lat="43.60826" lon="1.57201">
        <ele>214</ele>
        <time>2020-01-29T11:33:01.000Z</time>
      </trkpt>
      <trkpt lat="43.60806" lon="1.57186">
        <ele>214</ele>
        <time>2020-01-29T11:33:20.000Z</time>
      </trkpt>
      <trkpt lat="43.60786" lon="1.57172">
        <ele>214</ele>
        <time>2020-01-29T11:33:38.000Z</time>
      </trkpt>
      <trkpt lat="43.60764" lon="1.5716">
        <ele>212</ele>
        <time>2020-01-29T11:33:57.000Z</time>
      </trkpt>
      <trkpt lat="43.60743" lon="1.57146">
        <ele>211</ele>
        <time>2020-01-29T11:34:18.000Z</time>
      </trkpt>
      <trkpt lat="43.60722" lon="1.57132">
        <ele>209</ele>
        <time>2020-01-29T11:34:37.000Z</time>
      </trkpt>
      <trkpt lat="43.60702" lon="1.57117">
        <ele>207</ele>
        <time>2020-01-29T11:34:56.000Z</time>
      </trkpt>
      <trkpt lat="43.60682" lon="1.571">
        <ele>203</ele>
        <time>2020-01-29T11:35:21.000Z</time>
      </trkpt>
      <trkpt lat="43.6066" lon="1.57088">
        <ele>200</ele>
        <time>2020-01-29T11:35:45.000Z</time>
      </trkpt>
      <trkpt lat="43.60639" lon="1.57075">
        <ele>196</ele>
        <time>2020-01-29T11:36:06.000Z</time>
      </trkpt>
      <trkpt lat="43.60619" lon="1.5706">
        <ele>192</ele>
        <time>2020-01-29T11:36:29.000Z</time>
      </trkpt>
      <trkpt lat="43.60599" lon="1.57044">
        <ele>189</ele>
        <time>2020-01-29T11:36:48.000Z</time>
      </trkpt>
      <trkpt lat="43.60579" lon="1.5703">
        <ele>185</ele>
        <time>2020-01-29T11:37:06.000Z</time>
      </trkpt>
      <trkpt lat="43.60558" lon="1.57017">
        <ele>182</ele>
        <time>2020-01-29T11:37:24.000Z</time>
      </trkpt>
      <trkpt lat="43.60539" lon="1.57035">
        <ele>183</ele>
        <time>2020-01-29T11:37:50.000Z</time>
      </trkpt>
      <trkpt lat="43.60529" lon="1.57062">
        <ele>183</ele>
        <time>2020-01-29T11:38:10.000Z</time>
      </trkpt>
      <trkpt lat="43.6052" lon="1.57092">
        <ele>186</ele>
        <time>2020-01-29T11:38:30.000Z</time>
      </trkpt>
      <trkpt lat="43.60511" lon="1.57121">
        <ele>188</ele>
        <time>2020-01-29T11:38:51.000Z</time>
      </trkpt>
      <trkpt lat="43.60502" lon="1.57149">
        <ele>188</ele>
        <time>2020-01-29T11:39:10.000Z</time>
      </trkpt>
      <trkpt lat="43.60492" lon="1.57179">
        <ele>188</ele>
        <time>2020-01-29T11:39:30.000Z</time>
      </trkpt>
      <trkpt lat="43.6047" lon="1.57186">
        <ele>187</ele>
        <time>2020-01-29T11:40:14.000Z</time>
      </trkpt>
      <trkpt lat="43.60449" lon="1.57173">
        <ele>185</ele>
        <time>2020-01-29T11:40:37.000Z</time>
      </trkpt>
      <trkpt lat="43.60428" lon="1.57159">
        <ele>184</ele>
        <time>2020-01-29T11:40:58.000Z</time>
      </trkpt>
      <trkpt lat="43.60407" lon="1.57149">
        <ele>182</ele>
        <time>2020-01-29T11:41:20.000Z</time>
      </trkpt>
      <trkpt lat="43.60386" lon="1.57135">
        <ele>179</ele>
        <time>2020-01-29T11:41:42.000Z</time>
      </trkpt>
      <trkpt lat="43.60366" lon="1.57118">
        <ele>176</ele>
        <time>2020-01-29T11:42:07.000Z</time>
      </trkpt>
      <trkpt lat="43.60345" lon="1.57104">
        <ele>172</ele>
        <time>2020-01-29T11:42:32.000Z</time>
      </trkpt>
      <trkpt lat="43.60326" lon="1.57087">
        <ele>169</ele>
        <time>2020-01-29T11:42:54.000Z</time>
      </trkpt>
      <trkpt lat="43.60305" lon="1.57074">
        <ele>167</ele>
        <time>2020-01-29T11:43:14.000Z</time>
      </trkpt>
      <trkpt lat="43.60282" lon="1.57066">
        <ele>165</ele>
        <time>2020-01-29T11:43:32.000Z</time>
      </trkpt>
      <trkpt lat="43.60262" lon="1.57051">
        <ele>163</ele>
        <time>2020-01-29T11:43:51.000Z</time>
      </trkpt>
      <trkpt lat="43.60241" lon="1.5704">
        <ele>162</ele>
        <time>2020-01-29T11:44:17.000Z</time>
      </trkpt>
      <trkpt lat="43.60221" lon="1.57024">
        <ele>162</ele>
        <time>2020-01-29T11:44:39.000Z</time>
      </trkpt>
      <trkpt lat="43.60199" lon="1.57012">
        <ele>162</ele>
        <time>2020-01-29T11:44:59.000Z</time>
      </trkpt>
      <trkpt lat="43.60177" lon="1.57001">
        <ele>162</ele>
        <time>2020-01-29T11:45:18.000Z</time>
      </trkpt>
      <trkpt lat="43.60157" lon="1.56988">
        <ele>162</ele>
        <time>2020-01-29T11:45:39.000Z</time>
      </trkpt>
      <trkpt lat="43.60135" lon="1.56977">
        <ele>162</ele>
        <time>2020-01-29T11:45:59.000Z</time>
      </trkpt>
      <trkpt lat="43.60115" lon="1.56963">
        <ele>163</ele>
        <time>2020-01-29T11:46:22.000Z</time>
      </trkpt>
      <trkpt lat="43.60095" lon="1.56948">
        <ele>163</ele>
        <time>2020-01-29T11:46:44.000Z</time>
      </trkpt>
      <trkpt lat="43.60075" lon="1.5693">
        <ele>163</ele>
        <time>2020-01-29T11:47:06.000Z</time>
      </trkpt>
      <trkpt lat="43.60055" lon="1.56915">
        <ele>164</ele>
        <time>2020-01-29T11:47:25.000Z</time>
      </trkpt>
      <trkpt lat="43.60035" lon="1.56899">
        <ele>165</ele>
        <time>2020-01-29T11:47:45.000Z</time>
      </trkpt>
      <trkpt lat="43.60015" lon="1.56885">
        <ele>166</ele>
        <time>2020-01-29T11:48:03.000Z</time>
      </trkpt>
      <trkpt lat="43.59995" lon="1.56869">
        <ele>167</ele>
        <time>2020-01-29T11:48:24.000Z</time>
      </trkpt>
      <trkpt lat="43.59974" lon="1.56856">
        <ele>168</ele>
        <time>2020-01-29T11:48:44.000Z</time>
      </trkpt>
      <trkpt lat="43.59952" lon="1.56842">
        <ele>169</ele>
        <time>2020-01-29T11:49:05.000Z</time>
      </trkpt>
      <trkpt lat="43.59932" lon="1.56826">
        <ele>171</ele>
        <time>2020-01-29T11:49:25.000Z</time>
      </trkpt>
      <trkpt lat="43.59911" lon="1.56812">
        <ele>172</ele>
        <time>2020-01-29T11:49:44.000Z</time>
      </trkpt>
      <trkpt lat="43.59892" lon="1.56796">
        <ele>173</ele>
        <time>2020-01-29T11:50:00.000Z</time>
      </trkpt>
      <trkpt lat="43.59872" lon="1.5678">
        <ele>175</ele>
        <time>2020-01-29T11:50:19.000Z</time>
      </trkpt>
      <trkpt lat="43.59851" lon="1.56767">
        <ele>178</ele>
        <time>2020-01-29T11:50:39.000Z</time>
      </trkpt>
      <trkpt lat="43.59832" lon="1.56749">
        <ele>182</ele>
        <time>2020-01-29T11:50:58.000Z</time>
      </trkpt>
      <trkpt lat="43.59811" lon="1.56736">
        <ele>183</ele>
        <time>2020-01-29T11:51:13.000Z</time>
      </trkpt>
      <trkpt lat="43.59791" lon="1.56722">
        <ele>183</ele>
        <time>2020-01-29T11:51:28.000Z</time>
      </trkpt>
      <trkpt lat="43.5977" lon="1.56707">
        <ele>185</ele>
        <time>2020-01-29T11:51:45.000Z</time>
      </trkpt>
      <trkpt lat="43.5975" lon="1.56691">
        <ele>189</ele>
        <time>2020-01-29T11:52:02.000Z</time>
      </trkpt>
      <trkpt lat="43.5973" lon="1.56675">
        <ele>192</ele>
        <time>2020-01-29T11:52:19.000Z</time>
      </trkpt>
      <trkpt lat="43.59712" lon="1.56657">
        <ele>194</ele>
        <time>2020-01-29T11:52:37.000Z</time>
      </trkpt>
      <trkpt lat="43.59701" lon="1.56629">
        <ele>192</ele>
        <time>2020-01-29T11:53:04.000Z</time>
      </trkpt>
      <trkpt lat="43.59714" lon="1.56603">
        <ele>191</ele>
        <time>2020-01-29T11:58:40.000Z</time>
      </trkpt>
      <trkpt lat="43.5973" lon="1.56582">
        <ele>190</ele>
        <time>2020-01-29T11:59:04.000Z</time>
      </trkpt>
      <trkpt lat="43.59746" lon="1.56557">
        <ele>189</ele>
        <time>2020-01-29T11:59:28.000Z</time>
      </trkpt>
      <trkpt lat="43.59762" lon="1.56535">
        <ele>188</ele>
        <time>2020-01-29T11:59:49.000Z</time>
      </trkpt>
      <trkpt lat="43.5974" lon="1.56529">
        <ele>184</ele>
        <time>2020-01-29T12:00:32.000Z</time>
      </trkpt>
      <trkpt lat="43.5972" lon="1.56547">
        <ele>183</ele>
        <time>2020-01-29T12:00:53.000Z</time>
      </trkpt>
      <trkpt lat="43.59699" lon="1.56558">
        <ele>183</ele>
        <time>2020-01-29T12:01:14.000Z</time>
      </trkpt>
      <trkpt lat="43.59679" lon="1.56573">
        <ele>184</ele>
        <time>2020-01-29T12:01:35.000Z</time>
      </trkpt>
      <trkpt lat="43.59657" lon="1.56585">
        <ele>183</ele>
        <time>2020-01-29T12:01:55.000Z</time>
      </trkpt>
      <trkpt lat="43.59637" lon="1.56601">
        <ele>182</ele>
        <time>2020-01-29T12:02:14.000Z</time>
      </trkpt>
      <trkpt lat="43.59618" lon="1.56618">
        <ele>183</ele>
        <time>2020-01-29T12:05:35.000Z</time>
      </trkpt>
      <trkpt lat="43.596" lon="1.56637">
        <ele>183</ele>
        <time>2020-01-29T12:06:22.000Z</time>
      </trkpt>
      <trkpt lat="43.59582" lon="1.56657">
        <ele>183</ele>
        <time>2020-01-29T12:06:42.000Z</time>
      </trkpt>
      <trkpt lat="43.59563" lon="1.56677">
        <ele>183</ele>
        <time>2020-01-29T12:07:02.000Z</time>
      </trkpt>
      <trkpt lat="43.59544" lon="1.56692">
        <ele>183</ele>
        <time>2020-01-29T12:07:19.000Z</time>
      </trkpt>
      <trkpt lat="43.59524" lon="1.56707">
        <ele>183</ele>
        <time>2020-01-29T12:07:36.000Z</time>
      </trkpt>
      <trkpt lat="43.59503" lon="1.56723">
        <ele>184</ele>
        <time>2020-01-29T12:07:54.000Z</time>
      </trkpt>
      <trkpt lat="43.59483" lon="1.56737">
        <ele>184</ele>
        <time>2020-01-29T12:08:10.000Z</time>
      </trkpt>
      <trkpt lat="43.59463" lon="1.56754">
        <ele>184</ele>
        <time>2020-01-29T12:08:28.000Z</time>
      </trkpt>
      <trkpt lat="43.59444" lon="1.56772">
        <ele>184</ele>
        <time>2020-01-29T12:08:45.000Z</time>
      </trkpt>
      <trkpt lat="43.59424" lon="1.56789">
        <ele>184</ele>
        <time>2020-01-29T12:09:02.000Z</time>
      </trkpt>
      <trkpt lat="43.59404" lon="1.56808">
        <ele>184</ele>
        <time>2020-01-29T12:09:21.000Z</time>
      </trkpt>
      <trkpt lat="43.59385" lon="1.56826">
        <ele>184</ele>
        <time>2020-01-29T12:09:40.000Z</time>
      </trkpt>
      <trkpt lat="43.59367" lon="1.56847">
        <ele>184</ele>
        <time>2020-01-29T12:09:57.000Z</time>
      </trkpt>
      <trkpt lat="43.5935" lon="1.56868">
        <ele>184</ele>
        <time>2020-01-29T12:10:13.000Z</time>
      </trkpt>
      <trkpt lat="43.59336" lon="1.56894">
        <ele>184</ele>
        <time>2020-01-29T12:10:30.000Z</time>
      </trkpt>
      <trkpt lat="43.59321" lon="1.56918">
        <ele>184</ele>
        <time>2020-01-29T12:10:46.000Z</time>
      </trkpt>
      <trkpt lat="43.59309" lon="1.56946">
        <ele>184</ele>
        <time>2020-01-29T12:11:03.000Z</time>
      </trkpt>
      <trkpt lat="43.59298" lon="1.56974">
        <ele>184</ele>
        <time>2020-01-29T12:11:21.000Z</time>
      </trkpt>
      <trkpt lat="43.59286" lon="1.57001">
        <ele>185</ele>
        <time>2020-01-29T12:11:40.000Z</time>
      </trkpt>
      <trkpt lat="43.59264" lon="1.57014">
        <ele>183</ele>
        <time>2020-01-29T12:12:23.000Z</time>
      </trkpt>
      <trkpt lat="43.59261" lon="1.56984">
        <ele>187</ele>
        <time>2020-01-29T12:12:48.000Z</time>
      </trkpt>
      <trkpt lat="43.59262" lon="1.56952">
        <ele>187</ele>
        <time>2020-01-29T12:13:07.000Z</time>
      </trkpt>
      <trkpt lat="43.59261" lon="1.56921">
        <ele>188</ele>
        <time>2020-01-29T12:13:24.000Z</time>
      </trkpt>
      <trkpt lat="43.59274" lon="1.56893">
        <ele>186</ele>
        <time>2020-01-29T12:13:41.000Z</time>
      </trkpt>
      <trkpt lat="43.59287" lon="1.56867">
        <ele>186</ele>
        <time>2020-01-29T12:13:59.000Z</time>
      </trkpt>
      <trkpt lat="43.59301" lon="1.56841">
        <ele>186</ele>
        <time>2020-01-29T12:14:16.000Z</time>
      </trkpt>
      <trkpt lat="43.5931" lon="1.56812">
        <ele>185</ele>
        <time>2020-01-29T12:14:34.000Z</time>
      </trkpt>
      <trkpt lat="43.59321" lon="1.56785">
        <ele>185</ele>
        <time>2020-01-29T12:14:50.000Z</time>
      </trkpt>
      <trkpt lat="43.59327" lon="1.56754">
        <ele>185</ele>
        <time>2020-01-29T12:15:07.000Z</time>
      </trkpt>
      <trkpt lat="43.59313" lon="1.56729">
        <ele>184</ele>
        <time>2020-01-29T12:15:23.000Z</time>
      </trkpt>
      <trkpt lat="43.59291" lon="1.56724">
        <ele>185</ele>
        <time>2020-01-29T12:15:37.000Z</time>
      </trkpt>
      <trkpt lat="43.59268" lon="1.5673">
        <ele>184</ele>
        <time>2020-01-29T12:15:53.000Z</time>
      </trkpt>
      <trkpt lat="43.59245" lon="1.56723">
        <ele>184</ele>
        <time>2020-01-29T12:16:10.000Z</time>
      </trkpt>
      <trkpt lat="43.59222" lon="1.56717">
        <ele>184</ele>
        <time>2020-01-29T12:16:26.000Z</time>
      </trkpt>
      <trkpt lat="43.592" lon="1.56721">
        <ele>186</ele>
        <time>2020-01-29T12:16:42.000Z</time>
      </trkpt>
      <trkpt lat="43.59178" lon="1.56731">
        <ele>186</ele>
        <time>2020-01-29T12:16:57.000Z</time>
      </trkpt>
      <trkpt lat="43.5916" lon="1.56711">
        <ele>185</ele>
        <time>2020-01-29T12:17:17.000Z</time>
      </trkpt>
      <trkpt lat="43.59182" lon="1.56698">
        <ele>185</ele>
        <time>2020-01-29T12:17:34.000Z</time>
      </trkpt>
      <trkpt lat="43.59195" lon="1.56672">
        <ele>186</ele>
        <time>2020-01-29T12:17:53.000Z</time>
      </trkpt>
      <trkpt lat="43.59217" lon="1.56661">
        <ele>192</ele>
        <time>2020-01-29T12:18:26.000Z</time>
      </trkpt>
      <trkpt lat="43.59237" lon="1.56648">
        <ele>195</ele>
        <time>2020-01-29T12:22:07.000Z</time>
      </trkpt>
      <trkpt lat="43.5926" lon="1.56652">
        <ele>194</ele>
        <time>2020-01-29T12:24:23.000Z</time>
      </trkpt>
      <trkpt lat="43.59283" lon="1.56651">
        <ele>196</ele>
        <time>2020-01-29T12:24:48.000Z</time>
      </trkpt>
      <trkpt lat="43.59305" lon="1.56641">
        <ele>195</ele>
        <time>2020-01-29T12:25:10.000Z</time>
      </trkpt>
      <trkpt lat="43.59326" lon="1.56632">
        <ele>193</ele>
        <time>2020-01-29T12:25:31.000Z</time>
      </trkpt>
      <trkpt lat="43.59349" lon="1.56627">
        <ele>192</ele>
        <time>2020-01-29T12:25:52.000Z</time>
      </trkpt>
      <trkpt lat="43.59372" lon="1.56623">
        <ele>191</ele>
        <time>2020-01-29T12:26:13.000Z</time>
      </trkpt>
      <trkpt lat="43.59394" lon="1.56613">
        <ele>191</ele>
        <time>2020-01-29T12:26:34.000Z</time>
      </trkpt>
      <trkpt lat="43.59413" lon="1.56596">
        <ele>191</ele>
        <time>2020-01-29T12:26:54.000Z</time>
      </trkpt>
      <trkpt lat="43.59434" lon="1.56582">
        <ele>191</ele>
        <time>2020-01-29T12:27:13.000Z</time>
      </trkpt>
      <trkpt lat="43.59454" lon="1.56569">
        <ele>190</ele>
        <time>2020-01-29T12:27:33.000Z</time>
      </trkpt>
      <trkpt lat="43.59473" lon="1.56548">
        <ele>189</ele>
        <time>2020-01-29T12:27:54.000Z</time>
      </trkpt>
      <trkpt lat="43.5949" lon="1.56527">
        <ele>189</ele>
        <time>2020-01-29T12:28:14.000Z</time>
      </trkpt>
      <trkpt lat="43.59505" lon="1.56502">
        <ele>188</ele>
        <time>2020-01-29T12:28:33.000Z</time>
      </trkpt>
      <trkpt lat="43.59523" lon="1.56481">
        <ele>188</ele>
        <time>2020-01-29T12:28:53.000Z</time>
      </trkpt>
      <trkpt lat="43.59539" lon="1.56459">
        <ele>189</ele>
        <time>2020-01-29T12:29:14.000Z</time>
      </trkpt>
      <trkpt lat="43.59557" lon="1.56439">
        <ele>188</ele>
        <time>2020-01-29T12:29:34.000Z</time>
      </trkpt>
      <trkpt lat="43.59575" lon="1.56418">
        <ele>189</ele>
        <time>2020-01-29T12:29:55.000Z</time>
      </trkpt>
      <trkpt lat="43.59598" lon="1.56412">
        <ele>189</ele>
        <time>2020-01-29T12:30:15.000Z</time>
      </trkpt>
      <trkpt lat="43.5962" lon="1.56423">
        <ele>189</ele>
        <time>2020-01-29T12:30:38.000Z</time>
      </trkpt>
      <trkpt lat="43.59636" lon="1.56446">
        <ele>189</ele>
        <time>2020-01-29T12:31:01.000Z</time>
      </trkpt>
      <trkpt lat="43.59652" lon="1.56468">
        <ele>189</ele>
        <time>2020-01-29T12:31:21.000Z</time>
      </trkpt>
      <trkpt lat="43.59665" lon="1.56495">
        <ele>189</ele>
        <time>2020-01-29T12:31:41.000Z</time>
      </trkpt>
      <trkpt lat="43.59678" lon="1.56522">
        <ele>189</ele>
        <time>2020-01-29T12:32:01.000Z</time>
      </trkpt>
      <trkpt lat="43.59695" lon="1.56544">
        <ele>189</ele>
        <time>2020-01-29T12:32:22.000Z</time>
      </trkpt>
      <trkpt lat="43.59682" lon="1.56569">
        <ele>190</ele>
        <time>2020-01-29T12:32:44.000Z</time>
      </trkpt>
      <trkpt lat="43.5966" lon="1.56582">
        <ele>189</ele>
        <time>2020-01-29T12:33:06.000Z</time>
      </trkpt>
      <trkpt lat="43.5964" lon="1.56597">
        <ele>188</ele>
        <time>2020-01-29T12:33:26.000Z</time>
      </trkpt>
      <trkpt lat="43.59622" lon="1.56615">
        <ele>189</ele>
        <time>2020-01-29T12:33:47.000Z</time>
      </trkpt>
      <trkpt lat="43.59641" lon="1.566">
        <ele>183</ele>
        <time>2020-01-29T13:09:51.000Z</time>
      </trkpt>
      <trkpt lat="43.59662" lon="1.56586">
        <ele>184</ele>
        <time>2020-01-29T13:10:17.000Z</time>
      </trkpt>
      <trkpt lat="43.59684" lon="1.56576">
        <ele>185</ele>
        <time>2020-01-29T13:10:48.000Z</time>
      </trkpt>
      <trkpt lat="43.59673" lon="1.56604">
        <ele>187</ele>
        <time>2020-01-29T13:11:24.000Z</time>
      </trkpt>
      <trkpt lat="43.59661" lon="1.56631">
        <ele>189</ele>
        <time>2020-01-29T13:14:42.000Z</time>
      </trkpt>
      <trkpt lat="43.59647" lon="1.56655">
        <ele>191</ele>
        <time>2020-01-29T13:15:12.000Z</time>
      </trkpt>
      <trkpt lat="43.59635" lon="1.56682">
        <ele>193</ele>
        <time>2020-01-29T13:15:36.000Z</time>
      </trkpt>
      <trkpt lat="43.59632" lon="1.56713">
        <ele>196</ele>
        <time>2020-01-29T13:16:08.000Z</time>
      </trkpt>
      <trkpt lat="43.59655" lon="1.56709">
        <ele>198</ele>
        <time>2020-01-29T13:16:53.000Z</time>
      </trkpt>
      <trkpt lat="43.5967" lon="1.56685">
        <ele>198</ele>
        <time>2020-01-29T13:17:13.000Z</time>
      </trkpt>
      <trkpt lat="43.59689" lon="1.56664">
        <ele>196</ele>
        <time>2020-01-29T13:17:36.000Z</time>
      </trkpt>
      <trkpt lat="43.5971" lon="1.56656">
        <ele>195</ele>
        <time>2020-01-29T13:17:59.000Z</time>
      </trkpt>
      <trkpt lat="43.5973" lon="1.56674">
        <ele>194</ele>
        <time>2020-01-29T13:18:20.000Z</time>
      </trkpt>
      <trkpt lat="43.59748" lon="1.56692">
        <ele>192</ele>
        <time>2020-01-29T13:18:42.000Z</time>
      </trkpt>
      <trkpt lat="43.59768" lon="1.56708">
        <ele>191</ele>
        <time>2020-01-29T13:19:02.000Z</time>
      </trkpt>
      <trkpt lat="43.59787" lon="1.56724">
        <ele>188</ele>
        <time>2020-01-29T13:19:22.000Z</time>
      </trkpt>
      <trkpt lat="43.59808" lon="1.56738">
        <ele>186</ele>
        <time>2020-01-29T13:19:42.000Z</time>
      </trkpt>
      <trkpt lat="43.59828" lon="1.56752">
        <ele>183</ele>
        <time>2020-01-29T13:20:01.000Z</time>
      </trkpt>
      <trkpt lat="43.59848" lon="1.56769">
        <ele>180</ele>
        <time>2020-01-29T13:20:20.000Z</time>
      </trkpt>
      <trkpt lat="43.59868" lon="1.56786">
        <ele>178</ele>
        <time>2020-01-29T13:20:38.000Z</time>
      </trkpt>
      <trkpt lat="43.59889" lon="1.56801">
        <ele>176</ele>
        <time>2020-01-29T13:20:58.000Z</time>
      </trkpt>
      <trkpt lat="43.5991" lon="1.56815">
        <ele>174</ele>
        <time>2020-01-29T13:21:18.000Z</time>
      </trkpt>
      <trkpt lat="43.59932" lon="1.56828">
        <ele>172</ele>
        <time>2020-01-29T13:21:39.000Z</time>
      </trkpt>
      <trkpt lat="43.59953" lon="1.56841">
        <ele>170</ele>
        <time>2020-01-29T13:21:59.000Z</time>
      </trkpt>
      <trkpt lat="43.59974" lon="1.56856">
        <ele>169</ele>
        <time>2020-01-29T13:22:19.000Z</time>
      </trkpt>
      <trkpt lat="43.59994" lon="1.56871">
        <ele>168</ele>
        <time>2020-01-29T13:22:39.000Z</time>
      </trkpt>
      <trkpt lat="43.60014" lon="1.56888">
        <ele>167</ele>
        <time>2020-01-29T13:23:01.000Z</time>
      </trkpt>
      <trkpt lat="43.60035" lon="1.56902">
        <ele>166</ele>
        <time>2020-01-29T13:23:21.000Z</time>
      </trkpt>
      <trkpt lat="43.60056" lon="1.56917">
        <ele>165</ele>
        <time>2020-01-29T13:23:40.000Z</time>
      </trkpt>
      <trkpt lat="43.60075" lon="1.56932">
        <ele>164</ele>
        <time>2020-01-29T13:23:59.000Z</time>
      </trkpt>
      <trkpt lat="43.60095" lon="1.56949">
        <ele>164</ele>
        <time>2020-01-29T13:24:18.000Z</time>
      </trkpt>
      <trkpt lat="43.60116" lon="1.56964">
        <ele>163</ele>
        <time>2020-01-29T13:24:38.000Z</time>
      </trkpt>
      <trkpt lat="43.60137" lon="1.56974">
        <ele>163</ele>
        <time>2020-01-29T13:25:22.000Z</time>
      </trkpt>
      <trkpt lat="43.60159" lon="1.56983">
        <ele>163</ele>
        <time>2020-01-29T13:25:45.000Z</time>
      </trkpt>
      <trkpt lat="43.60178" lon="1.57001">
        <ele>163</ele>
        <time>2020-01-29T13:26:08.000Z</time>
      </trkpt>
      <trkpt lat="43.60199" lon="1.57015">
        <ele>163</ele>
        <time>2020-01-29T13:26:30.000Z</time>
      </trkpt>
      <trkpt lat="43.6022" lon="1.57025">
        <ele>163</ele>
        <time>2020-01-29T13:26:52.000Z</time>
      </trkpt>
      <trkpt lat="43.60243" lon="1.57035">
        <ele>164</ele>
        <time>2020-01-29T13:27:18.000Z</time>
      </trkpt>
      <trkpt lat="43.60263" lon="1.57049">
        <ele>164</ele>
        <time>2020-01-29T13:27:40.000Z</time>
      </trkpt>
      <trkpt lat="43.60284" lon="1.57064">
        <ele>163</ele>
        <time>2020-01-29T13:28:03.000Z</time>
      </trkpt>
      <trkpt lat="43.60305" lon="1.57077">
        <ele>163</ele>
        <time>2020-01-29T13:28:29.000Z</time>
      </trkpt>
      <trkpt lat="43.60325" lon="1.57093">
        <ele>164</ele>
        <time>2020-01-29T13:28:52.000Z</time>
      </trkpt>
      <trkpt lat="43.60346" lon="1.57107">
        <ele>167</ele>
        <time>2020-01-29T13:29:20.000Z</time>
      </trkpt>
      <trkpt lat="43.60365" lon="1.57123">
        <ele>172</ele>
        <time>2020-01-29T13:29:47.000Z</time>
      </trkpt>
      <trkpt lat="43.60387" lon="1.57134">
        <ele>176</ele>
        <time>2020-01-29T13:30:14.000Z</time>
      </trkpt>
      <trkpt lat="43.60408" lon="1.57147">
        <ele>178</ele>
        <time>2020-01-29T13:30:40.000Z</time>
      </trkpt>
      <trkpt lat="43.60429" lon="1.57159">
        <ele>180</ele>
        <time>2020-01-29T13:31:03.000Z</time>
      </trkpt>
      <trkpt lat="43.6045" lon="1.57173">
        <ele>182</ele>
        <time>2020-01-29T13:31:26.000Z</time>
      </trkpt>
      <trkpt lat="43.60471" lon="1.57187">
        <ele>183</ele>
        <time>2020-01-29T13:31:48.000Z</time>
      </trkpt>
      <trkpt lat="43.60493" lon="1.57192">
        <ele>186</ele>
        <time>2020-01-29T13:36:55.000Z</time>
      </trkpt>
      <trkpt lat="43.60501" lon="1.57163">
        <ele>185</ele>
        <time>2020-01-29T13:37:38.000Z</time>
      </trkpt>
      <trkpt lat="43.6051" lon="1.57133">
        <ele>186</ele>
        <time>2020-01-29T13:37:59.000Z</time>
      </trkpt>
      <trkpt lat="43.60519" lon="1.57105">
        <ele>185</ele>
        <time>2020-01-29T13:38:20.000Z</time>
      </trkpt>
      <trkpt lat="43.60528" lon="1.57076">
        <ele>185</ele>
        <time>2020-01-29T13:38:39.000Z</time>
      </trkpt>
      <trkpt lat="43.60539" lon="1.57048">
        <ele>183</ele>
        <time>2020-01-29T13:38:58.000Z</time>
      </trkpt>
      <trkpt lat="43.60551" lon="1.57022">
        <ele>182</ele>
        <time>2020-01-29T13:39:17.000Z</time>
      </trkpt>
      <trkpt lat="43.60574" lon="1.57027">
        <ele>185</ele>
        <time>2020-01-29T13:39:42.000Z</time>
      </trkpt>
      <trkpt lat="43.60595" lon="1.5704">
        <ele>188</ele>
        <time>2020-01-29T13:40:00.000Z</time>
      </trkpt>
      <trkpt lat="43.60615" lon="1.57056">
        <ele>191</ele>
        <time>2020-01-29T13:40:18.000Z</time>
      </trkpt>
      <trkpt lat="43.60637" lon="1.57067">
        <ele>194</ele>
        <time>2020-01-29T13:40:36.000Z</time>
      </trkpt>
      <trkpt lat="43.60658" lon="1.57084">
        <ele>199</ele>
        <time>2020-01-29T13:40:54.000Z</time>
      </trkpt>
      <trkpt lat="43.60679" lon="1.57098">
        <ele>202</ele>
        <time>2020-01-29T13:41:11.000Z</time>
      </trkpt>
      <trkpt lat="43.607" lon="1.57114">
        <ele>205</ele>
        <time>2020-01-29T13:41:27.000Z</time>
      </trkpt>
      <trkpt lat="43.60721" lon="1.57129">
        <ele>207</ele>
        <time>2020-01-29T13:41:44.000Z</time>
      </trkpt>
      <trkpt lat="43.60742" lon="1.57142">
        <ele>210</ele>
        <time>2020-01-29T13:42:00.000Z</time>
      </trkpt>
      <trkpt lat="43.60763" lon="1.57156">
        <ele>211</ele>
        <time>2020-01-29T13:42:17.000Z</time>
      </trkpt>
      <trkpt lat="43.60782" lon="1.57173">
        <ele>211</ele>
        <time>2020-01-29T13:42:32.000Z</time>
      </trkpt>
      <trkpt lat="43.60804" lon="1.57186">
        <ele>212</ele>
        <time>2020-01-29T13:42:48.000Z</time>
      </trkpt>
      <trkpt lat="43.60825" lon="1.57201">
        <ele>213</ele>
        <time>2020-01-29T13:43:14.000Z</time>
      </trkpt>
      <trkpt lat="43.60847" lon="1.57206">
        <ele>213</ele>
        <time>2020-01-29T13:43:32.000Z</time>
      </trkpt>
      <trkpt lat="43.60824" lon="1.57201">
        <ele>213</ele>
        <time>2020-01-29T13:44:47.000Z</time>
      </trkpt>
      <trkpt lat="43.60846" lon="1.57208">
        <ele>214</ele>
        <time>2020-01-29T13:49:01.000Z</time>
      </trkpt>
      <trkpt lat="43.60869" lon="1.57204">
        <ele>214</ele>
        <time>2020-01-29T13:49:19.000Z</time>
      </trkpt>
      <trkpt lat="43.60892" lon="1.57196">
        <ele>214</ele>
        <time>2020-01-29T13:49:38.000Z</time>
      </trkpt>
      <trkpt lat="43.60914" lon="1.57186">
        <ele>213</ele>
        <time>2020-01-29T13:49:59.000Z</time>
      </trkpt>
      <trkpt lat="43.60935" lon="1.57173">
        <ele>213</ele>
        <time>2020-01-29T13:50:19.000Z</time>
      </trkpt>
      <trkpt lat="43.60957" lon="1.57167">
        <ele>212</ele>
        <time>2020-01-29T13:51:24.000Z</time>
      </trkpt>
      <trkpt lat="43.60977" lon="1.57184">
        <ele>210</ele>
        <time>2020-01-29T13:52:01.000Z</time>
      </trkpt>
      <trkpt lat="43.60997" lon="1.57198">
        <ele>211</ele>
        <time>2020-01-29T13:52:19.000Z</time>
      </trkpt>
      <trkpt lat="43.61019" lon="1.5721">
        <ele>210</ele>
        <time>2020-01-29T13:52:36.000Z</time>
      </trkpt>
      <trkpt lat="43.6104" lon="1.57221">
        <ele>210</ele>
        <time>2020-01-29T13:52:53.000Z</time>
      </trkpt>
      <trkpt lat="43.61063" lon="1.5723">
        <ele>211</ele>
        <time>2020-01-29T13:53:12.000Z</time>
      </trkpt>
      <trkpt lat="43.61085" lon="1.57235">
        <ele>213</ele>
        <time>2020-01-29T13:53:33.000Z</time>
      </trkpt>
      <trkpt lat="43.61106" lon="1.57246">
        <ele>214</ele>
        <time>2020-01-29T13:53:54.000Z</time>
      </trkpt>
      <trkpt lat="43.61126" lon="1.57263">
        <ele>215</ele>
        <time>2020-01-29T13:54:13.000Z</time>
      </trkpt>
      <trkpt lat="43.61145" lon="1.57279">
        <ele>217</ele>
        <time>2020-01-29T13:54:32.000Z</time>
      </trkpt>
      <trkpt lat="43.61167" lon="1.57288">
        <ele>219</ele>
        <time>2020-01-29T13:54:57.000Z</time>
      </trkpt>
      <trkpt lat="43.61186" lon="1.57269">
        <ele>218</ele>
        <time>2020-01-29T13:55:16.000Z</time>
      </trkpt>
      <trkpt lat="43.61198" lon="1.57242">
        <ele>219</ele>
        <time>2020-01-29T13:55:36.000Z</time>
      </trkpt>
      <trkpt lat="43.61209" lon="1.57215">
        <ele>219</ele>
        <time>2020-01-29T13:55:55.000Z</time>
      </trkpt>
      <trkpt lat="43.6122" lon="1.57187">
        <ele>218</ele>
        <time>2020-01-29T13:56:14.000Z</time>
      </trkpt>
      <trkpt lat="43.6123" lon="1.57159">
        <ele>218</ele>
        <time>2020-01-29T13:56:31.000Z</time>
      </trkpt>
      <trkpt lat="43.61241" lon="1.57131">
        <ele>217</ele>
        <time>2020-01-29T13:56:49.000Z</time>
      </trkpt>
      <trkpt lat="43.61255" lon="1.57104">
        <ele>217</ele>
        <time>2020-01-29T13:57:06.000Z</time>
      </trkpt>
      <trkpt lat="43.61266" lon="1.57076">
        <ele>216</ele>
        <time>2020-01-29T13:57:24.000Z</time>
      </trkpt>
      <trkpt lat="43.61278" lon="1.57048">
        <ele>216</ele>
        <time>2020-01-29T13:57:42.000Z</time>
      </trkpt>
      <trkpt lat="43.6129" lon="1.5702">
        <ele>216</ele>
        <time>2020-01-29T13:58:00.000Z</time>
      </trkpt>
      <trkpt lat="43.61303" lon="1.56995">
        <ele>215</ele>
        <time>2020-01-29T13:58:17.000Z</time>
      </trkpt>
      <trkpt lat="43.61314" lon="1.56967">
        <ele>215</ele>
        <time>2020-01-29T13:58:34.000Z</time>
      </trkpt>
      <trkpt lat="43.61326" lon="1.5694">
        <ele>214</ele>
        <time>2020-01-29T13:58:52.000Z</time>
      </trkpt>
      <trkpt lat="43.6134" lon="1.56914">
        <ele>214</ele>
        <time>2020-01-29T13:59:09.000Z</time>
      </trkpt>
      <trkpt lat="43.61354" lon="1.56888">
        <ele>213</ele>
        <time>2020-01-29T13:59:26.000Z</time>
      </trkpt>
      <trkpt lat="43.61363" lon="1.56859">
        <ele>213</ele>
        <time>2020-01-29T13:59:44.000Z</time>
      </trkpt>
      <trkpt lat="43.61368" lon="1.56828">
        <ele>212</ele>
        <time>2020-01-29T14:00:04.000Z</time>
      </trkpt>
      <trkpt lat="43.61376" lon="1.56799">
        <ele>212</ele>
        <time>2020-01-29T14:00:23.000Z</time>
      </trkpt>
      <trkpt lat="43.61379" lon="1.56763">
        <ele>212</ele>
        <time>2020-01-29T14:00:43.000Z</time>
      </trkpt>
      <trkpt lat="43.61385" lon="1.56732">
        <ele>212</ele>
        <time>2020-01-29T14:01:00.000Z</time>
      </trkpt>
      <trkpt lat="43.6139" lon="1.56701">
        <ele>211</ele>
        <time>2020-01-29T14:01:19.000Z</time>
      </trkpt>
      <trkpt lat="43.61397" lon="1.56671">
        <ele>212</ele>
        <time>2020-01-29T14:01:36.000Z</time>
      </trkpt>
      <trkpt lat="43.61402" lon="1.5664">
        <ele>211</ele>
        <time>2020-01-29T14:01:53.000Z</time>
      </trkpt>
      <trkpt lat="43.61412" lon="1.5661">
        <ele>211</ele>
        <time>2020-01-29T14:02:11.000Z</time>
      </trkpt>
      <trkpt lat="43.61417" lon="1.56579">
        <ele>211</ele>
        <time>2020-01-29T14:02:28.000Z</time>
      </trkpt>
      <trkpt lat="43.61425" lon="1.56549">
        <ele>210</ele>
        <time>2020-01-29T14:02:45.000Z</time>
      </trkpt>
      <trkpt lat="43.61429" lon="1.56519">
        <ele>210</ele>
        <time>2020-01-29T14:03:03.000Z</time>
      </trkpt>
      <trkpt lat="43.61441" lon="1.56492">
        <ele>210</ele>
        <time>2020-01-29T14:03:23.000Z</time>
      </trkpt>
      <trkpt lat="43.61449" lon="1.56462">
        <ele>209</ele>
        <time>2020-01-29T14:03:41.000Z</time>
      </trkpt>
      <trkpt lat="43.61448" lon="1.5643">
        <ele>209</ele>
        <time>2020-01-29T14:04:01.000Z</time>
      </trkpt>
      <trkpt lat="43.61455" lon="1.564">
        <ele>209</ele>
        <time>2020-01-29T14:04:20.000Z</time>
      </trkpt>
      <trkpt lat="43.61458" lon="1.56369">
        <ele>208</ele>
        <time>2020-01-29T14:04:37.000Z</time>
      </trkpt>
      <trkpt lat="43.61466" lon="1.56338">
        <ele>208</ele>
        <time>2020-01-29T14:04:56.000Z</time>
      </trkpt>
      <trkpt lat="43.6147" lon="1.56307">
        <ele>208</ele>
        <time>2020-01-29T14:05:14.000Z</time>
      </trkpt>
      <trkpt lat="43.61471" lon="1.56276">
        <ele>208</ele>
        <time>2020-01-29T14:05:31.000Z</time>
      </trkpt>
      <trkpt lat="43.61481" lon="1.56247">
        <ele>207</ele>
        <time>2020-01-29T14:05:50.000Z</time>
      </trkpt>
      <trkpt lat="43.61484" lon="1.56216">
        <ele>209</ele>
        <time>2020-01-29T14:06:07.000Z</time>
      </trkpt>
      <trkpt lat="43.61495" lon="1.56188">
        <ele>207</ele>
        <time>2020-01-29T14:06:30.000Z</time>
      </trkpt>
      <trkpt lat="43.61509" lon="1.56163">
        <ele>206</ele>
        <time>2020-01-29T14:06:48.000Z</time>
      </trkpt>
      <trkpt lat="43.61521" lon="1.56136">
        <ele>204</ele>
        <time>2020-01-29T14:07:09.000Z</time>
      </trkpt>
      <trkpt lat="43.61537" lon="1.56114">
        <ele>202</ele>
        <time>2020-01-29T14:07:27.000Z</time>
      </trkpt>
      <trkpt lat="43.61549" lon="1.56087">
        <ele>201</ele>
        <time>2020-01-29T14:07:45.000Z</time>
      </trkpt>
      <trkpt lat="43.61562" lon="1.56061">
        <ele>201</ele>
        <time>2020-01-29T14:08:02.000Z</time>
      </trkpt>
      <trkpt lat="43.61578" lon="1.56038">
        <ele>200</ele>
        <time>2020-01-29T14:08:19.000Z</time>
      </trkpt>
      <trkpt lat="43.61591" lon="1.56013">
        <ele>199</ele>
        <time>2020-01-29T14:08:37.000Z</time>
      </trkpt>
      <trkpt lat="43.61607" lon="1.55989">
        <ele>197</ele>
        <time>2020-01-29T14:08:56.000Z</time>
      </trkpt>
      <trkpt lat="43.61622" lon="1.55966">
        <ele>196</ele>
        <time>2020-01-29T14:09:13.000Z</time>
      </trkpt>
      <trkpt lat="43.61635" lon="1.55939">
        <ele>193</ele>
        <time>2020-01-29T14:09:33.000Z</time>
      </trkpt>
      <trkpt lat="43.61648" lon="1.55912">
        <ele>191</ele>
        <time>2020-01-29T14:09:51.000Z</time>
      </trkpt>
      <trkpt lat="43.61662" lon="1.55888">
        <ele>190</ele>
        <time>2020-01-29T14:10:09.000Z</time>
      </trkpt>
      <trkpt lat="43.61677" lon="1.55862">
        <ele>188</ele>
        <time>2020-01-29T14:10:28.000Z</time>
      </trkpt>
      <trkpt lat="43.61692" lon="1.55839">
        <ele>187</ele>
        <time>2020-01-29T14:10:44.000Z</time>
      </trkpt>
      <trkpt lat="43.61707" lon="1.55815">
        <ele>186</ele>
        <time>2020-01-29T14:11:02.000Z</time>
      </trkpt>
      <trkpt lat="43.61721" lon="1.55789">
        <ele>185</ele>
        <time>2020-01-29T14:11:20.000Z</time>
      </trkpt>
      <trkpt lat="43.61736" lon="1.55766">
        <ele>184</ele>
        <time>2020-01-29T14:11:38.000Z</time>
      </trkpt>
      <trkpt lat="43.6175" lon="1.5574">
        <ele>186</ele>
        <time>2020-01-29T14:11:56.000Z</time>
      </trkpt>
      <trkpt lat="43.61763" lon="1.55714">
        <ele>185</ele>
        <time>2020-01-29T14:12:15.000Z</time>
      </trkpt>
      <trkpt lat="43.61777" lon="1.55687">
        <ele>184</ele>
        <time>2020-01-29T14:12:34.000Z</time>
      </trkpt>
      <trkpt lat="43.61791" lon="1.55661">
        <ele>183</ele>
        <time>2020-01-29T14:12:53.000Z</time>
      </trkpt>
      <trkpt lat="43.61803" lon="1.55635">
        <ele>181</ele>
        <time>2020-01-29T14:13:13.000Z</time>
      </trkpt>
      <trkpt lat="43.61798" lon="1.55605">
        <ele>182</ele>
        <time>2020-01-29T14:14:07.000Z</time>
      </trkpt>
      <trkpt lat="43.61777" lon="1.55591">
        <ele>182</ele>
        <time>2020-01-29T14:17:52.000Z</time>
      </trkpt>
      <trkpt lat="43.61757" lon="1.55575">
        <ele>181</ele>
        <time>2020-01-29T14:18:16.000Z</time>
      </trkpt>
      <trkpt lat="43.61737" lon="1.55559">
        <ele>182</ele>
        <time>2020-01-29T14:18:41.000Z</time>
      </trkpt>
      <trkpt lat="43.61719" lon="1.55542">
        <ele>183</ele>
        <time>2020-01-29T14:19:08.000Z</time>
      </trkpt>
      <trkpt lat="43.61698" lon="1.55529">
        <ele>185</ele>
        <time>2020-01-29T14:19:37.000Z</time>
      </trkpt>
      <trkpt lat="43.61679" lon="1.55508">
        <ele>184</ele>
        <time>2020-01-29T14:20:00.000Z</time>
      </trkpt>
      <trkpt lat="43.61664" lon="1.55484">
        <ele>183</ele>
        <time>2020-01-29T14:20:20.000Z</time>
      </trkpt>
      <trkpt lat="43.61646" lon="1.55465">
        <ele>182</ele>
        <time>2020-01-29T14:20:39.000Z</time>
      </trkpt>
      <trkpt lat="43.61629" lon="1.55444">
        <ele>180</ele>
        <time>2020-01-29T14:20:54.000Z</time>
      </trkpt>
      <trkpt lat="43.61612" lon="1.55422">
        <ele>179</ele>
        <time>2020-01-29T14:21:14.000Z</time>
      </trkpt>
      <trkpt lat="43.6159" lon="1.5541">
        <ele>181</ele>
        <time>2020-01-29T14:21:51.000Z</time>
      </trkpt>
      <trkpt lat="43.61568" lon="1.55402">
        <ele>184</ele>
        <time>2020-01-29T14:22:14.000Z</time>
      </trkpt>
      <trkpt lat="43.61547" lon="1.5539">
        <ele>186</ele>
        <time>2020-01-29T14:22:35.000Z</time>
      </trkpt>
      <trkpt lat="43.61525" lon="1.55382">
        <ele>189</ele>
        <time>2020-01-29T14:22:58.000Z</time>
      </trkpt>
      <trkpt lat="43.6154" lon="1.55359">
        <ele>187</ele>
        <time>2020-01-29T14:24:02.000Z</time>
      </trkpt>
      <trkpt lat="43.61559" lon="1.5534">
        <ele>186</ele>
        <time>2020-01-29T14:24:24.000Z</time>
      </trkpt>
      <trkpt lat="43.61571" lon="1.55314">
        <ele>186</ele>
        <time>2020-01-29T14:24:47.000Z</time>
      </trkpt>
      <trkpt lat="43.61584" lon="1.55288">
        <ele>185</ele>
        <time>2020-01-29T14:25:06.000Z</time>
      </trkpt>
      <trkpt lat="43.61594" lon="1.55258">
        <ele>186</ele>
        <time>2020-01-29T14:25:26.000Z</time>
      </trkpt>
      <trkpt lat="43.61605" lon="1.5523">
        <ele>187</ele>
        <time>2020-01-29T14:25:46.000Z</time>
      </trkpt>
      <trkpt lat="43.61616" lon="1.55202">
        <ele>186</ele>
        <time>2020-01-29T14:26:06.000Z</time>
      </trkpt>
      <trkpt lat="43.61626" lon="1.55172">
        <ele>187</ele>
        <time>2020-01-29T14:26:24.000Z</time>
      </trkpt>
      <trkpt lat="43.61638" lon="1.55145">
        <ele>186</ele>
        <time>2020-01-29T14:26:44.000Z</time>
      </trkpt>
      <trkpt lat="43.61646" lon="1.55115">
        <ele>185</ele>
        <time>2020-01-29T14:27:04.000Z</time>
      </trkpt>
      <trkpt lat="43.61655" lon="1.55086">
        <ele>185</ele>
        <time>2020-01-29T14:27:23.000Z</time>
      </trkpt>
      <trkpt lat="43.61664" lon="1.55057">
        <ele>184</ele>
        <time>2020-01-29T14:27:43.000Z</time>
      </trkpt>
      <trkpt lat="43.61674" lon="1.55029">
        <ele>184</ele>
        <time>2020-01-29T14:28:01.000Z</time>
      </trkpt>
      <trkpt lat="43.61687" lon="1.55001">
        <ele>183</ele>
        <time>2020-01-29T14:28:19.000Z</time>
      </trkpt>
      <trkpt lat="43.61696" lon="1.54973">
        <ele>183</ele>
        <time>2020-01-29T14:28:38.000Z</time>
      </trkpt>
      <trkpt lat="43.61709" lon="1.54946">
        <ele>181</ele>
        <time>2020-01-29T14:29:01.000Z</time>
      </trkpt>
      <trkpt lat="43.61718" lon="1.54917">
        <ele>180</ele>
        <time>2020-01-29T14:29:23.000Z</time>
      </trkpt>
      <trkpt lat="43.61732" lon="1.54893">
        <ele>179</ele>
        <time>2020-01-29T14:29:55.000Z</time>
      </trkpt>
      <trkpt lat="43.61733" lon="1.54861">
        <ele>178</ele>
        <time>2020-01-29T14:30:21.000Z</time>
      </trkpt>
      <trkpt lat="43.61744" lon="1.54832">
        <ele>177</ele>
        <time>2020-01-29T14:30:41.000Z</time>
      </trkpt>
      <trkpt lat="43.61759" lon="1.54809">
        <ele>175</ele>
        <time>2020-01-29T14:31:13.000Z</time>
      </trkpt>
      <trkpt lat="43.61758" lon="1.54777">
        <ele>173</ele>
        <time>2020-01-29T14:31:33.000Z</time>
      </trkpt>
      <trkpt lat="43.61759" lon="1.54746">
        <ele>171</ele>
        <time>2020-01-29T14:31:51.000Z</time>
      </trkpt>
      <trkpt lat="43.61761" lon="1.54714">
        <ele>170</ele>
        <time>2020-01-29T14:32:30.000Z</time>
      </trkpt>
      <trkpt lat="43.61758" lon="1.54682">
        <ele>168</ele>
        <time>2020-01-29T14:32:51.000Z</time>
      </trkpt>
      <trkpt lat="43.61756" lon="1.54651">
        <ele>166</ele>
        <time>2020-01-29T14:33:13.000Z</time>
      </trkpt>
      <trkpt lat="43.61756" lon="1.54619">
        <ele>165</ele>
        <time>2020-01-29T14:33:43.000Z</time>
      </trkpt>
      <trkpt lat="43.61757" lon="1.54588">
        <ele>164</ele>
        <time>2020-01-29T14:34:16.000Z</time>
      </trkpt>
      <trkpt lat="43.61757" lon="1.54556">
        <ele>163</ele>
        <time>2020-01-29T14:34:37.000Z</time>
      </trkpt>
      <trkpt lat="43.61757" lon="1.54523">
        <ele>161</ele>
        <time>2020-01-29T14:34:56.000Z</time>
      </trkpt>
      <trkpt lat="43.61756" lon="1.54491">
        <ele>160</ele>
        <time>2020-01-29T14:35:15.000Z</time>
      </trkpt>
      <trkpt lat="43.61758" lon="1.5446">
        <ele>158</ele>
        <time>2020-01-29T14:35:34.000Z</time>
      </trkpt>
      <trkpt lat="43.61767" lon="1.54431">
        <ele>157</ele>
        <time>2020-01-29T14:35:53.000Z</time>
      </trkpt>
      <trkpt lat="43.61771" lon="1.544">
        <ele>157</ele>
        <time>2020-01-29T14:36:20.000Z</time>
      </trkpt>
      <trkpt lat="43.61774" lon="1.54368">
        <ele>158</ele>
        <time>2020-01-29T14:36:41.000Z</time>
      </trkpt>
      <trkpt lat="43.61768" lon="1.54336">
        <ele>158</ele>
        <time>2020-01-29T14:37:01.000Z</time>
      </trkpt>
      <trkpt lat="43.61757" lon="1.54308">
        <ele>157</ele>
        <time>2020-01-29T14:37:23.000Z</time>
      </trkpt>
      <trkpt lat="43.6175" lon="1.54278">
        <ele>157</ele>
        <time>2020-01-29T14:40:54.000Z</time>
      </trkpt>
      <trkpt lat="43.61765" lon="1.54254">
        <ele>157</ele>
        <time>2020-01-29T14:41:23.000Z</time>
      </trkpt>
      <trkpt lat="43.6178" lon="1.54229">
        <ele>157</ele>
        <time>2020-01-29T14:41:45.000Z</time>
      </trkpt>
      <trkpt lat="43.61793" lon="1.54203">
        <ele>157</ele>
        <time>2020-01-29T14:42:03.000Z</time>
      </trkpt>
      <trkpt lat="43.61811" lon="1.54182">
        <ele>157</ele>
        <time>2020-01-29T14:42:20.000Z</time>
      </trkpt>
      <trkpt lat="43.61829" lon="1.54163">
        <ele>157</ele>
        <time>2020-01-29T14:42:37.000Z</time>
      </trkpt>
      <trkpt lat="43.61848" lon="1.54144">
        <ele>156</ele>
        <time>2020-01-29T14:42:54.000Z</time>
      </trkpt>
      <trkpt lat="43.61869" lon="1.54129">
        <ele>157</ele>
        <time>2020-01-29T14:43:11.000Z</time>
      </trkpt>
      <trkpt lat="43.61889" lon="1.54113">
        <ele>156</ele>
        <time>2020-01-29T14:43:28.000Z</time>
      </trkpt>
      <trkpt lat="43.61909" lon="1.54097">
        <ele>156</ele>
        <time>2020-01-29T14:43:45.000Z</time>
      </trkpt>
      <trkpt lat="43.61929" lon="1.54082">
        <ele>157</ele>
        <time>2020-01-29T14:44:02.000Z</time>
      </trkpt>
      <trkpt lat="43.61949" lon="1.54066">
        <ele>157</ele>
        <time>2020-01-29T14:44:19.000Z</time>
      </trkpt>
      <trkpt lat="43.61969" lon="1.5405">
        <ele>156</ele>
        <time>2020-01-29T14:44:37.000Z</time>
      </trkpt>
      <trkpt lat="43.61989" lon="1.54034">
        <ele>156</ele>
        <time>2020-01-29T14:44:54.000Z</time>
      </trkpt>
      <trkpt lat="43.6201" lon="1.54018">
        <ele>156</ele>
        <time>2020-01-29T14:45:12.000Z</time>
      </trkpt>
      <trkpt lat="43.62031" lon="1.54003">
        <ele>156</ele>
        <time>2020-01-29T14:45:28.000Z</time>
      </trkpt>
      <trkpt lat="43.62053" lon="1.5399">
        <ele>156</ele>
        <time>2020-01-29T14:45:45.000Z</time>
      </trkpt>
      <trkpt lat="43.62073" lon="1.53974">
        <ele>156</ele>
        <time>2020-01-29T14:46:02.000Z</time>
      </trkpt>
      <trkpt lat="43.62094" lon="1.53959">
        <ele>156</ele>
        <time>2020-01-29T14:46:19.000Z</time>
      </trkpt>
      <trkpt lat="43.62114" lon="1.53943">
        <ele>155</ele>
        <time>2020-01-29T14:46:36.000Z</time>
      </trkpt>
      <trkpt lat="43.62133" lon="1.53925">
        <ele>156</ele>
        <time>2020-01-29T14:46:55.000Z</time>
      </trkpt>
      <trkpt lat="43.62152" lon="1.53908">
        <ele>156</ele>
        <time>2020-01-29T14:47:12.000Z</time>
      </trkpt>
      <trkpt lat="43.62172" lon="1.53892">
        <ele>156</ele>
        <time>2020-01-29T14:47:27.000Z</time>
      </trkpt>
      <trkpt lat="43.62189" lon="1.53871">
        <ele>157</ele>
        <time>2020-01-29T14:47:44.000Z</time>
      </trkpt>
      <trkpt lat="43.62209" lon="1.53852">
        <ele>156</ele>
        <time>2020-01-29T14:48:01.000Z</time>
      </trkpt>
      <trkpt lat="43.62223" lon="1.53829">
        <ele>156</ele>
        <time>2020-01-29T14:48:16.000Z</time>
      </trkpt>
      <trkpt lat="43.62239" lon="1.53805">
        <ele>156</ele>
        <time>2020-01-29T14:48:33.000Z</time>
      </trkpt>
      <trkpt lat="43.62253" lon="1.53781">
        <ele>156</ele>
        <time>2020-01-29T14:48:49.000Z</time>
      </trkpt>
      <trkpt lat="43.62263" lon="1.53753">
        <ele>156</ele>
        <time>2020-01-29T14:49:05.000Z</time>
      </trkpt>
      <trkpt lat="43.62279" lon="1.5373">
        <ele>156</ele>
        <time>2020-01-29T14:49:21.000Z</time>
      </trkpt>
      <trkpt lat="43.62296" lon="1.53706">
        <ele>155</ele>
        <time>2020-01-29T14:49:37.000Z</time>
      </trkpt>
      <trkpt lat="43.62311" lon="1.53683">
        <ele>155</ele>
        <time>2020-01-29T14:49:53.000Z</time>
      </trkpt>
      <trkpt lat="43.62325" lon="1.53658">
        <ele>155</ele>
        <time>2020-01-29T14:50:08.000Z</time>
      </trkpt>
      <trkpt lat="43.62336" lon="1.53629">
        <ele>155</ele>
        <time>2020-01-29T14:50:25.000Z</time>
      </trkpt>
      <trkpt lat="43.62347" lon="1.53601">
        <ele>155</ele>
        <time>2020-01-29T14:50:42.000Z</time>
      </trkpt>
      <trkpt lat="43.62348" lon="1.5357">
        <ele>155</ele>
        <time>2020-01-29T14:50:58.000Z</time>
      </trkpt>
      <trkpt lat="43.62337" lon="1.53542">
        <ele>155</ele>
        <time>2020-01-29T14:56:06.000Z</time>
      </trkpt>
      <trkpt lat="43.62326" lon="1.53513">
        <ele>153</ele>
        <time>2020-01-29T14:56:24.000Z</time>
      </trkpt>
      <trkpt lat="43.62317" lon="1.53484">
        <ele>152</ele>
        <time>2020-01-29T14:56:41.000Z</time>
      </trkpt>
      <trkpt lat="43.6231" lon="1.53454">
        <ele>152</ele>
        <time>2020-01-29T14:56:59.000Z</time>
      </trkpt>
      <trkpt lat="43.62303" lon="1.53423">
        <ele>152</ele>
        <time>2020-01-29T14:57:17.000Z</time>
      </trkpt>
      <trkpt lat="43.62296" lon="1.53392">
        <ele>151</ele>
        <time>2020-01-29T14:57:35.000Z</time>
      </trkpt>
      <trkpt lat="43.62288" lon="1.53363">
        <ele>151</ele>
        <time>2020-01-29T14:57:52.000Z</time>
      </trkpt>
      <trkpt lat="43.62283" lon="1.53333">
        <ele>152</ele>
        <time>2020-01-29T14:58:09.000Z</time>
      </trkpt>
      <trkpt lat="43.62274" lon="1.53303">
        <ele>152</ele>
        <time>2020-01-29T14:58:28.000Z</time>
      </trkpt>
      <trkpt lat="43.62263" lon="1.53275">
        <ele>153</ele>
        <time>2020-01-29T14:58:45.000Z</time>
      </trkpt>
      <trkpt lat="43.62255" lon="1.53245">
        <ele>154</ele>
        <time>2020-01-29T14:59:02.000Z</time>
      </trkpt>
      <trkpt lat="43.62244" lon="1.53218">
        <ele>155</ele>
        <time>2020-01-29T14:59:22.000Z</time>
      </trkpt>
      <trkpt lat="43.6223" lon="1.53192">
        <ele>156</ele>
        <time>2020-01-29T14:59:40.000Z</time>
      </trkpt>
      <trkpt lat="43.62216" lon="1.53166">
        <ele>157</ele>
        <time>2020-01-29T14:59:57.000Z</time>
      </trkpt>
      <trkpt lat="43.62201" lon="1.5314">
        <ele>160</ele>
        <time>2020-01-29T15:00:15.000Z</time>
      </trkpt>
      <trkpt lat="43.62187" lon="1.53115">
        <ele>163</ele>
        <time>2020-01-29T15:00:34.000Z</time>
      </trkpt>
      <trkpt lat="43.62166" lon="1.53103">
        <ele>165</ele>
        <time>2020-01-29T15:00:50.000Z</time>
      </trkpt>
      <trkpt lat="43.62144" lon="1.53097">
        <ele>166</ele>
        <time>2020-01-29T15:01:05.000Z</time>
      </trkpt>
      <trkpt lat="43.62121" lon="1.53093">
        <ele>169</ele>
        <time>2020-01-29T15:01:22.000Z</time>
      </trkpt>
      <trkpt lat="43.62099" lon="1.53088">
        <ele>171</ele>
        <time>2020-01-29T15:01:38.000Z</time>
      </trkpt>
      <trkpt lat="43.62077" lon="1.53084">
        <ele>174</ele>
        <time>2020-01-29T15:01:56.000Z</time>
      </trkpt>
      <trkpt lat="43.62054" lon="1.53081">
        <ele>179</ele>
        <time>2020-01-29T15:02:17.000Z</time>
      </trkpt>
      <trkpt lat="43.6203" lon="1.53078">
        <ele>182</ele>
        <time>2020-01-29T15:02:38.000Z</time>
      </trkpt>
      <trkpt lat="43.62009" lon="1.53067">
        <ele>186</ele>
        <time>2020-01-29T15:02:56.000Z</time>
      </trkpt>
      <trkpt lat="43.6199" lon="1.5305">
        <ele>190</ele>
        <time>2020-01-29T15:03:14.000Z</time>
      </trkpt>
      <trkpt lat="43.61969" lon="1.53037">
        <ele>194</ele>
        <time>2020-01-29T15:03:31.000Z</time>
      </trkpt>
      <trkpt lat="43.61947" lon="1.53022">
        <ele>197</ele>
        <time>2020-01-29T15:03:48.000Z</time>
      </trkpt>
      <trkpt lat="43.61928" lon="1.53005">
        <ele>202</ele>
        <time>2020-01-29T15:04:10.000Z</time>
      </trkpt>
      <trkpt lat="43.61908" lon="1.52991">
        <ele>206</ele>
        <time>2020-01-29T15:04:36.000Z</time>
      </trkpt>
      <trkpt lat="43.61912" lon="1.5296">
        <ele>207</ele>
        <time>2020-01-29T15:10:00.000Z</time>
      </trkpt>
      <trkpt lat="43.61916" lon="1.52929">
        <ele>207</ele>
        <time>2020-01-29T15:10:45.000Z</time>
      </trkpt>
      <trkpt lat="43.61921" lon="1.52899">
        <ele>208</ele>
        <time>2020-01-29T15:11:05.000Z</time>
      </trkpt>
      <trkpt lat="43.61929" lon="1.52869">
        <ele>208</ele>
        <time>2020-01-29T15:11:22.000Z</time>
      </trkpt>
      <trkpt lat="43.61937" lon="1.52839">
        <ele>208</ele>
        <time>2020-01-29T15:11:39.000Z</time>
      </trkpt>
      <trkpt lat="43.61945" lon="1.52809">
        <ele>208</ele>
        <time>2020-01-29T15:11:56.000Z</time>
      </trkpt>
      <trkpt lat="43.61955" lon="1.5278">
        <ele>209</ele>
        <time>2020-01-29T15:12:13.000Z</time>
      </trkpt>
      <trkpt lat="43.61961" lon="1.5275">
        <ele>209</ele>
        <time>2020-01-29T15:12:30.000Z</time>
      </trkpt>
      <trkpt lat="43.61971" lon="1.52722">
        <ele>209</ele>
        <time>2020-01-29T15:12:48.000Z</time>
      </trkpt>
      <trkpt lat="43.61979" lon="1.52692">
        <ele>209</ele>
        <time>2020-01-29T15:13:06.000Z</time>
      </trkpt>
      <trkpt lat="43.61986" lon="1.52661">
        <ele>208</ele>
        <time>2020-01-29T15:13:24.000Z</time>
      </trkpt>
      <trkpt lat="43.61993" lon="1.5263">
        <ele>208</ele>
        <time>2020-01-29T15:13:43.000Z</time>
      </trkpt>
      <trkpt lat="43.62002" lon="1.526">
        <ele>207</ele>
        <time>2020-01-29T15:14:01.000Z</time>
      </trkpt>
      <trkpt lat="43.6201" lon="1.5257">
        <ele>207</ele>
        <time>2020-01-29T15:14:18.000Z</time>
      </trkpt>
      <trkpt lat="43.62017" lon="1.5254">
        <ele>207</ele>
        <time>2020-01-29T15:14:35.000Z</time>
      </trkpt>
      <trkpt lat="43.62025" lon="1.5251">
        <ele>206</ele>
        <time>2020-01-29T15:14:53.000Z</time>
      </trkpt>
      <trkpt lat="43.62033" lon="1.5248">
        <ele>207</ele>
        <time>2020-01-29T15:15:12.000Z</time>
      </trkpt>
      <trkpt lat="43.62014" lon="1.52461">
        <ele>207</ele>
        <time>2020-01-29T15:17:57.000Z</time>
      </trkpt>
      <trkpt lat="43.61995" lon="1.52444">
        <ele>208</ele>
        <time>2020-01-29T15:18:14.000Z</time>
      </trkpt>
      <trkpt lat="43.61974" lon="1.52431">
        <ele>209</ele>
        <time>2020-01-29T15:18:28.000Z</time>
      </trkpt>
      <trkpt lat="43.61954" lon="1.52417">
        <ele>208</ele>
        <time>2020-01-29T15:18:44.000Z</time>
      </trkpt>
      <trkpt lat="43.61932" lon="1.52405">
        <ele>206</ele>
        <time>2020-01-29T15:18:59.000Z</time>
      </trkpt>
      <trkpt lat="43.6191" lon="1.52397">
        <ele>205</ele>
        <time>2020-01-29T15:19:13.000Z</time>
      </trkpt>
      <trkpt lat="43.61887" lon="1.52392">
        <ele>204</ele>
        <time>2020-01-29T15:19:28.000Z</time>
      </trkpt>
      <trkpt lat="43.61864" lon="1.52386">
        <ele>203</ele>
        <time>2020-01-29T15:19:44.000Z</time>
      </trkpt>
      <trkpt lat="43.61842" lon="1.5238">
        <ele>202</ele>
        <time>2020-01-29T15:19:59.000Z</time>
      </trkpt>
      <trkpt lat="43.61819" lon="1.52375">
        <ele>204</ele>
        <time>2020-01-29T15:20:16.000Z</time>
      </trkpt>
      <trkpt lat="43.61796" lon="1.52368">
        <ele>206</ele>
        <time>2020-01-29T15:20:32.000Z</time>
      </trkpt>
      <trkpt lat="43.61773" lon="1.52361">
        <ele>207</ele>
        <time>2020-01-29T15:20:48.000Z</time>
      </trkpt>
      <trkpt lat="43.6175" lon="1.52355">
        <ele>208</ele>
        <time>2020-01-29T15:21:03.000Z</time>
      </trkpt>
      <trkpt lat="43.61728" lon="1.52347">
        <ele>209</ele>
        <time>2020-01-29T15:21:18.000Z</time>
      </trkpt>
      <trkpt lat="43.61706" lon="1.52339">
        <ele>211</ele>
        <time>2020-01-29T15:21:33.000Z</time>
      </trkpt>
      <trkpt lat="43.61685" lon="1.52329">
        <ele>212</ele>
        <time>2020-01-29T15:21:48.000Z</time>
      </trkpt>
      <trkpt lat="43.61662" lon="1.52321">
        <ele>214</ele>
        <time>2020-01-29T15:22:03.000Z</time>
      </trkpt>
      <trkpt lat="43.6164" lon="1.52315">
        <ele>215</ele>
        <time>2020-01-29T15:22:19.000Z</time>
      </trkpt>
      <trkpt lat="43.61618" lon="1.52302">
        <ele>215</ele>
        <time>2020-01-29T15:22:36.000Z</time>
      </trkpt>
      <trkpt lat="43.61622" lon="1.5227">
        <ele>215</ele>
        <time>2020-01-29T15:22:52.000Z</time>
      </trkpt>
      <trkpt lat="43.61629" lon="1.5224">
        <ele>214</ele>
        <time>2020-01-29T15:25:44.000Z</time>
      </trkpt>
      <trkpt lat="43.61639" lon="1.52212">
        <ele>214</ele>
        <time>2020-01-29T15:26:01.000Z</time>
      </trkpt>
      <trkpt lat="43.61647" lon="1.52182">
        <ele>214</ele>
        <time>2020-01-29T15:26:19.000Z</time>
      </trkpt>
      <trkpt lat="43.61659" lon="1.52156">
        <ele>213</ele>
        <time>2020-01-29T15:26:36.000Z</time>
      </trkpt>
      <trkpt lat="43.6167" lon="1.52128">
        <ele>214</ele>
        <time>2020-01-29T15:26:55.000Z</time>
      </trkpt>
      <trkpt lat="43.61681" lon="1.52099">
        <ele>213</ele>
        <time>2020-01-29T15:27:14.000Z</time>
      </trkpt>
      <trkpt lat="43.61693" lon="1.52072">
        <ele>213</ele>
        <time>2020-01-29T15:27:31.000Z</time>
      </trkpt>
      <trkpt lat="43.61705" lon="1.52045">
        <ele>213</ele>
        <time>2020-01-29T15:27:50.000Z</time>
      </trkpt>
      <trkpt lat="43.61718" lon="1.52019">
        <ele>213</ele>
        <time>2020-01-29T15:28:09.000Z</time>
      </trkpt>
      <trkpt lat="43.61732" lon="1.51994">
        <ele>212</ele>
        <time>2020-01-29T15:28:27.000Z</time>
      </trkpt>
      <trkpt lat="43.61746" lon="1.51969">
        <ele>212</ele>
        <time>2020-01-29T15:28:46.000Z</time>
      </trkpt>
      <trkpt lat="43.6176" lon="1.51943">
        <ele>212</ele>
        <time>2020-01-29T15:29:04.000Z</time>
      </trkpt>
      <trkpt lat="43.61774" lon="1.51917">
        <ele>212</ele>
        <time>2020-01-29T15:29:21.000Z</time>
      </trkpt>
      <trkpt lat="43.61787" lon="1.51892">
        <ele>211</ele>
        <time>2020-01-29T15:29:39.000Z</time>
      </trkpt>
      <trkpt lat="43.61802" lon="1.51867">
        <ele>210</ele>
        <time>2020-01-29T15:29:55.000Z</time>
      </trkpt>
      <trkpt lat="43.61819" lon="1.51843">
        <ele>210</ele>
        <time>2020-01-29T15:30:11.000Z</time>
      </trkpt>
      <trkpt lat="43.61834" lon="1.51819">
        <ele>209</ele>
        <time>2020-01-29T15:30:29.000Z</time>
      </trkpt>
      <trkpt lat="43.61848" lon="1.51793">
        <ele>209</ele>
        <time>2020-01-29T15:30:47.000Z</time>
      </trkpt>
      <trkpt lat="43.6186" lon="1.51766">
        <ele>209</ele>
        <time>2020-01-29T15:31:03.000Z</time>
      </trkpt>
      <trkpt lat="43.61873" lon="1.51741">
        <ele>208</ele>
        <time>2020-01-29T15:31:21.000Z</time>
      </trkpt>
      <trkpt lat="43.61887" lon="1.51714">
        <ele>209</ele>
        <time>2020-01-29T15:31:38.000Z</time>
      </trkpt>
      <trkpt lat="43.61878" lon="1.51684">
        <ele>210</ele>
        <time>2020-01-29T15:31:56.000Z</time>
      </trkpt>
      <trkpt lat="43.6187" lon="1.51654">
        <ele>211</ele>
        <time>2020-01-29T15:32:16.000Z</time>
      </trkpt>
      <trkpt lat="43.61877" lon="1.51624">
        <ele>210</ele>
        <time>2020-01-29T15:32:36.000Z</time>
      </trkpt>
      <trkpt lat="43.61867" lon="1.51595">
        <ele>210</ele>
        <time>2020-01-29T15:32:51.000Z</time>
      </trkpt>
      <trkpt lat="43.61856" lon="1.51567">
        <ele>210</ele>
        <time>2020-01-29T15:33:08.000Z</time>
      </trkpt>
      <trkpt lat="43.61846" lon="1.51537">
        <ele>209</ele>
        <time>2020-01-29T15:33:24.000Z</time>
      </trkpt>
      <trkpt lat="43.61833" lon="1.5151">
        <ele>210</ele>
        <time>2020-01-29T15:33:40.000Z</time>
      </trkpt>
      <trkpt lat="43.61825" lon="1.51479">
        <ele>210</ele>
        <time>2020-01-29T15:33:56.000Z</time>
      </trkpt>
      <trkpt lat="43.61814" lon="1.51452">
        <ele>209</ele>
        <time>2020-01-29T15:34:11.000Z</time>
      </trkpt>
      <trkpt lat="43.61835" lon="1.51439">
        <ele>209</ele>
        <time>2020-01-29T15:34:42.000Z</time>
      </trkpt>
      <trkpt lat="43.61855" lon="1.51423">
        <ele>208</ele>
        <time>2020-01-29T15:34:58.000Z</time>
      </trkpt>
      <trkpt lat="43.61873" lon="1.51401">
        <ele>208</ele>
        <time>2020-01-29T15:35:17.000Z</time>
      </trkpt>
      <trkpt lat="43.61887" lon="1.51375">
        <ele>207</ele>
        <time>2020-01-29T15:35:33.000Z</time>
      </trkpt>
      <trkpt lat="43.61889" lon="1.51343">
        <ele>206</ele>
        <time>2020-01-29T15:35:50.000Z</time>
      </trkpt>
      <trkpt lat="43.61889" lon="1.51311">
        <ele>205</ele>
        <time>2020-01-29T15:36:06.000Z</time>
      </trkpt>
      <trkpt lat="43.61896" lon="1.51281">
        <ele>204</ele>
        <time>2020-01-29T15:36:23.000Z</time>
      </trkpt>
      <trkpt lat="43.61912" lon="1.51259">
        <ele>204</ele>
        <time>2020-01-29T15:36:39.000Z</time>
      </trkpt>
      <trkpt lat="43.61932" lon="1.51243">
        <ele>204</ele>
        <time>2020-01-29T15:36:55.000Z</time>
      </trkpt>
      <trkpt lat="43.61947" lon="1.51219">
        <ele>203</ele>
        <time>2020-01-29T15:37:12.000Z</time>
      </trkpt>
      <trkpt lat="43.6196" lon="1.51194">
        <ele>203</ele>
        <time>2020-01-29T15:37:28.000Z</time>
      </trkpt>
      <trkpt lat="43.61948" lon="1.51165">
        <ele>202</ele>
        <time>2020-01-29T15:37:46.000Z</time>
      </trkpt>
      <trkpt lat="43.61937" lon="1.51138">
        <ele>202</ele>
        <time>2020-01-29T15:38:05.000Z</time>
      </trkpt>
      <trkpt lat="43.61948" lon="1.51111">
        <ele>201</ele>
        <time>2020-01-29T15:38:21.000Z</time>
      </trkpt>
      <trkpt lat="43.61937" lon="1.51083">
        <ele>200</ele>
        <time>2020-01-29T15:38:41.000Z</time>
      </trkpt>
      <trkpt lat="43.61916" lon="1.51068">
        <ele>198</ele>
        <time>2020-01-29T15:38:58.000Z</time>
      </trkpt>
      <trkpt lat="43.61899" lon="1.51048">
        <ele>196</ele>
        <time>2020-01-29T15:39:15.000Z</time>
      </trkpt>
      <trkpt lat="43.6188" lon="1.5103">
        <ele>195</ele>
        <time>2020-01-29T15:39:32.000Z</time>
      </trkpt>
      <trkpt lat="43.61858" lon="1.51021">
        <ele>194</ele>
        <time>2020-01-29T15:39:47.000Z</time>
      </trkpt>
      <trkpt lat="43.61838" lon="1.51007">
        <ele>192</ele>
        <time>2020-01-29T15:40:03.000Z</time>
      </trkpt>
      <trkpt lat="43.61817" lon="1.50995">
        <ele>192</ele>
        <time>2020-01-29T15:40:20.000Z</time>
      </trkpt>
      <trkpt lat="43.61795" lon="1.50984">
        <ele>191</ele>
        <time>2020-01-29T15:40:36.000Z</time>
      </trkpt>
      <trkpt lat="43.61774" lon="1.5097">
        <ele>191</ele>
        <time>2020-01-29T15:40:55.000Z</time>
      </trkpt>
      <trkpt lat="43.61752" lon="1.50961">
        <ele>189</ele>
        <time>2020-01-29T15:41:12.000Z</time>
      </trkpt>
      <trkpt lat="43.61734" lon="1.50978">
        <ele>189</ele>
        <time>2020-01-29T15:41:30.000Z</time>
      </trkpt>
      <trkpt lat="43.61722" lon="1.51004">
        <ele>188</ele>
        <time>2020-01-29T15:41:46.000Z</time>
      </trkpt>
      <trkpt lat="43.61701" lon="1.51017">
        <ele>187</ele>
        <time>2020-01-29T15:42:03.000Z</time>
      </trkpt>
      <trkpt lat="43.6168" lon="1.51">
        <ele>186</ele>
        <time>2020-01-29T15:42:20.000Z</time>
      </trkpt>
      <trkpt lat="43.61664" lon="1.50979">
        <ele>186</ele>
        <time>2020-01-29T15:42:37.000Z</time>
      </trkpt>
      <trkpt lat="43.61648" lon="1.50957">
        <ele>185</ele>
        <time>2020-01-29T15:42:54.000Z</time>
      </trkpt>
      <trkpt lat="43.61629" lon="1.50937">
        <ele>185</ele>
        <time>2020-01-29T15:43:12.000Z</time>
      </trkpt>
      <trkpt lat="43.61611" lon="1.50918">
        <ele>185</ele>
        <time>2020-01-29T15:43:31.000Z</time>
      </trkpt>
      <trkpt lat="43.61591" lon="1.50902">
        <ele>185</ele>
        <time>2020-01-29T15:43:47.000Z</time>
      </trkpt>
      <trkpt lat="43.61569" lon="1.5089">
        <ele>184</ele>
        <time>2020-01-29T15:44:04.000Z</time>
      </trkpt>
      <trkpt lat="43.61548" lon="1.50879">
        <ele>184</ele>
        <time>2020-01-29T15:44:19.000Z</time>
      </trkpt>
      <trkpt lat="43.61526" lon="1.50875">
        <ele>183</ele>
        <time>2020-01-29T15:44:39.000Z</time>
      </trkpt>
      <trkpt lat="43.61504" lon="1.50866">
        <ele>182</ele>
        <time>2020-01-29T15:44:54.000Z</time>
      </trkpt>
      <trkpt lat="43.61482" lon="1.50857">
        <ele>181</ele>
        <time>2020-01-29T15:45:13.000Z</time>
      </trkpt>
      <trkpt lat="43.6146" lon="1.50847">
        <ele>180</ele>
        <time>2020-01-29T15:45:29.000Z</time>
      </trkpt>
      <trkpt lat="43.61437" lon="1.50839">
        <ele>179</ele>
        <time>2020-01-29T15:45:46.000Z</time>
      </trkpt>
      <trkpt lat="43.61419" lon="1.50858">
        <ele>179</ele>
        <time>2020-01-29T15:46:01.000Z</time>
      </trkpt>
      <trkpt lat="43.61401" lon="1.50877">
        <ele>176</ele>
        <time>2020-01-29T15:46:18.000Z</time>
      </trkpt>
      <trkpt lat="43.61382" lon="1.50896">
        <ele>174</ele>
        <time>2020-01-29T15:46:35.000Z</time>
      </trkpt>
      <trkpt lat="43.61365" lon="1.50918">
        <ele>172</ele>
        <time>2020-01-29T15:46:52.000Z</time>
      </trkpt>
      <trkpt lat="43.61354" lon="1.50946">
        <ele>171</ele>
        <time>2020-01-29T15:47:10.000Z</time>
      </trkpt>
      <trkpt lat="43.61348" lon="1.50976">
        <ele>171</ele>
        <time>2020-01-29T15:47:28.000Z</time>
      </trkpt>
      <trkpt lat="43.61345" lon="1.51007">
        <ele>171</ele>
        <time>2020-01-29T15:47:46.000Z</time>
      </trkpt>
      <trkpt lat="43.61346" lon="1.51039">
        <ele>171</ele>
        <time>2020-01-29T15:48:03.000Z</time>
      </trkpt>
      <trkpt lat="43.6135" lon="1.51069">
        <ele>171</ele>
        <time>2020-01-29T15:48:21.000Z</time>
      </trkpt>
    </trkseg>
  </trk>
</gpx>